<?xml version='1.0' encoding='UTF-8'?><gpx version="1.1" creator="JPX - https://github.com/jenetics/jpx" xmlns="http://www.topografix.com/GPX/1/1"><trk><trkseg><trkpt lat="42.657875946342315" lon="12.069090664374698"><ele>541.0</ele><time>2026-04-17T16:16:30.999Z</time></trkpt><trkpt lat="42.657873780653475" lon="12.068947234016703"><ele>541.0</ele><time>2026-04-17T16:16:32.999Z</time></trkpt><trkpt lat="42.657855092519696" lon="12.06885201682468"><ele>541.0</ele><time>2026-04-17T16:16:33.999Z</time></trkpt><trkpt lat="42.65781294924145" lon="12.068758259441399"><ele>541.0</ele><time>2026-04-17T16:16:34.999Z</time></trkpt><trkpt lat="42.65776255117124" lon="12.068683701544476"><ele>541.0</ele><time>2026-04-17T16:16:35.999Z</time></trkpt><trkpt lat="42.65770760898904" lon="12.068618239105882"><ele>541.0</ele><time>2026-04-17T16:16:36.999Z</time></trkpt><trkpt lat="42.65764970819504" lon="12.068555491355879"><ele>542.2</ele><time>2026-04-17T16:16:37.999Z</time></trkpt><trkpt lat="42.65761551410858" lon="12.068451459081768"><ele>543.4000000000001</ele><time>2026-04-17T16:16:38.999Z</time></trkpt><trkpt lat="42.657544372607674" lon="12.068390430557194"><ele>544.6</ele><time>2026-04-17T16:16:39.999Z</time></trkpt><trkpt lat="42.657444635686645" lon="12.068316221601354"><ele>545.8000000000001</ele><time>2026-04-17T16:16:40.999Z</time></trkpt><trkpt lat="42.657365732480095" lon="12.068257435367924"><ele>547.0</ele><time>2026-04-17T16:16:41.999Z</time></trkpt><trkpt lat="42.65728593573425" lon="12.068195784503613"><ele>547.0</ele><time>2026-04-17T16:16:42.999Z</time></trkpt><trkpt lat="42.657204529668434" lon="12.068116879699877"><ele>547.0</ele><time>2026-04-17T16:16:43.999Z</time></trkpt><trkpt lat="42.65713390497559" lon="12.068017422757556"><ele>547.0</ele><time>2026-04-17T16:16:44.999Z</time></trkpt><trkpt lat="42.657058605382126" lon="12.067914536352735"><ele>547.0</ele><time>2026-04-17T16:16:45.999Z</time></trkpt><trkpt lat="42.65700242349334" lon="12.06778808318954"><ele>547.0</ele><time>2026-04-17T16:16:46.999Z</time></trkpt><trkpt lat="42.656949391535" lon="12.06766416178648"><ele>547.75</ele><time>2026-04-17T16:16:47.999Z</time></trkpt><trkpt lat="42.65690459936514" lon="12.067542074222933"><ele>548.5</ele><time>2026-04-17T16:16:48.999Z</time></trkpt><trkpt lat="42.65688286871601" lon="12.06739715874869"><ele>549.25</ele><time>2026-04-17T16:16:49.999Z</time></trkpt><trkpt lat="42.65685751278311" lon="12.06722926414112"><ele>550.0</ele><time>2026-04-17T16:16:50.999Z</time></trkpt><trkpt lat="42.656830230138425" lon="12.06703163115209"><ele>550.3333333333334</ele><time>2026-04-17T16:16:51.999Z</time></trkpt><trkpt lat="42.656795034733065" lon="12.066809414924851"><ele>550.6666666666666</ele><time>2026-04-17T16:16:52.999Z</time></trkpt><trkpt lat="42.65674745618863" lon="12.066610451849048"><ele>551.0</ele><time>2026-04-17T16:16:53.999Z</time></trkpt><trkpt lat="42.656717580442454" lon="12.066414883050921"><ele>551.0</ele><time>2026-04-17T16:16:54.999Z</time></trkpt><trkpt lat="42.65668623134826" lon="12.066215156720354"><ele>551.0</ele><time>2026-04-17T16:16:55.999Z</time></trkpt><trkpt lat="42.656652048944444" lon="12.0660146276643"><ele>551.0</ele><time>2026-04-17T16:16:56.999Z</time></trkpt><trkpt lat="42.65662224992727" lon="12.065833793243657"><ele>551.0</ele><time>2026-04-17T16:16:57.999Z</time></trkpt><trkpt lat="42.65660270441436" lon="12.065686329681178"><ele>551.5</ele><time>2026-04-17T16:16:58.999Z</time></trkpt><trkpt lat="42.65660961763328" lon="12.065572639718967"><ele>552.0</ele><time>2026-04-17T16:17:00Z</time></trkpt><trkpt lat="42.65660441021372" lon="12.065466753580424"><ele>552.5</ele><time>2026-04-17T16:17:01Z</time></trkpt><trkpt lat="42.65662626499762" lon="12.065358331938347"><ele>553.0</ele><time>2026-04-17T16:17:02Z</time></trkpt><trkpt lat="42.656650670982735" lon="12.065268753092049"><ele>553.5</ele><time>2026-04-17T16:17:03Z</time></trkpt><trkpt lat="42.65669943256621" lon="12.065182026738183"><ele>554.0</ele><time>2026-04-17T16:17:04Z</time></trkpt><trkpt lat="42.65676338323689" lon="12.065107650540828"><ele>554.0</ele><time>2026-04-17T16:17:05Z</time></trkpt><trkpt lat="42.65684038352296" lon="12.065013911572954"><ele>554.0</ele><time>2026-04-17T16:17:06Z</time></trkpt><trkpt lat="42.65692937537334" lon="12.064904871649544"><ele>554.0</ele><time>2026-04-17T16:17:07Z</time></trkpt><trkpt lat="42.657026500376034" lon="12.06476118077078"><ele>554.0</ele><time>2026-04-17T16:17:08Z</time></trkpt><trkpt lat="42.65714149778218" lon="12.064588956772289"><ele>555.0</ele><time>2026-04-17T16:17:09Z</time></trkpt><trkpt lat="42.65724423484071" lon="12.064433791444348"><ele>556.0</ele><time>2026-04-17T16:17:10Z</time></trkpt><trkpt lat="42.657332390456894" lon="12.064304189555449"><ele>557.0</ele><time>2026-04-17T16:17:11Z</time></trkpt><trkpt lat="42.657408733981434" lon="12.064186491205374"><ele>558.0</ele><time>2026-04-17T16:17:12Z</time></trkpt><trkpt lat="42.6574860162804" lon="12.064068145904438"><ele>558.5</ele><time>2026-04-17T16:17:13Z</time></trkpt><trkpt lat="42.65755211213756" lon="12.063971324661354"><ele>559.0</ele><time>2026-04-17T16:17:14Z</time></trkpt><trkpt lat="42.65761211195539" lon="12.06387524352639"><ele>559.5</ele><time>2026-04-17T16:17:15Z</time></trkpt><trkpt lat="42.65767833142819" lon="12.063790457143472"><ele>560.0</ele><time>2026-04-17T16:17:16Z</time></trkpt><trkpt lat="42.65774738600236" lon="12.063734575234959"><ele>560.5</ele><time>2026-04-17T16:17:17Z</time></trkpt><trkpt lat="42.657818173582875" lon="12.063695032468894"><ele>561.0</ele><time>2026-04-17T16:17:18Z</time></trkpt><trkpt lat="42.65789109708304" lon="12.0636641763556"><ele>561.2</ele><time>2026-04-17T16:17:19Z</time></trkpt><trkpt lat="42.65797157152934" lon="12.063630547051726"><ele>561.4000000000001</ele><time>2026-04-17T16:17:20Z</time></trkpt><trkpt lat="42.65806767702512" lon="12.063592439498464"><ele>561.6</ele><time>2026-04-17T16:17:21Z</time></trkpt><trkpt lat="42.65818701906649" lon="12.063565848831363"><ele>561.8000000000001</ele><time>2026-04-17T16:17:22Z</time></trkpt><trkpt lat="42.65831578435777" lon="12.063570705444876"><ele>562.0</ele><time>2026-04-17T16:17:23Z</time></trkpt><trkpt lat="42.658425516731185" lon="12.063537560705878"><ele>562.0</ele><time>2026-04-17T16:17:24Z</time></trkpt><trkpt lat="42.65852337027157" lon="12.063535807741104"><ele>562.0</ele><time>2026-04-17T16:17:25Z</time></trkpt><trkpt lat="42.658623404549154" lon="12.063496428667793"><ele>562.0</ele><time>2026-04-17T16:17:26Z</time></trkpt><trkpt lat="42.658727980265475" lon="12.063452230572453"><ele>562.0</ele><time>2026-04-17T16:17:27Z</time></trkpt><trkpt lat="42.65882791843187" lon="12.063389461030756"><ele>562.0</ele><time>2026-04-17T16:17:28Z</time></trkpt><trkpt lat="42.658927374580806" lon="12.063331075889517"><ele>562.0</ele><time>2026-04-17T16:17:29Z</time></trkpt><trkpt lat="42.65900390313647" lon="12.063274551792254"><ele>562.0</ele><time>2026-04-17T16:17:30Z</time></trkpt><trkpt lat="42.65909725383882" lon="12.063208901800047"><ele>562.0</ele><time>2026-04-17T16:17:32Z</time></trkpt><trkpt lat="42.659187520474866" lon="12.063195897459801"><ele>562.0</ele><time>2026-04-17T16:17:34Z</time></trkpt><trkpt lat="42.65930554883315" lon="12.063248458427912"><ele>562.0</ele><time>2026-04-17T16:17:35.999Z</time></trkpt><trkpt lat="42.65940308533894" lon="12.063307988569754"><ele>560.2</ele><time>2026-04-17T16:17:37.999Z</time></trkpt><trkpt lat="42.659506623643374" lon="12.063388988082666"><ele>558.4000000000001</ele><time>2026-04-17T16:17:39.999Z</time></trkpt><trkpt lat="42.659620805729574" lon="12.063469069055847"><ele>556.5999999999999</ele><time>2026-04-17T16:17:41.999Z</time></trkpt><trkpt lat="42.65969184462655" lon="12.063513421754513"><ele>554.8</ele><time>2026-04-17T16:17:42.999Z</time></trkpt><trkpt lat="42.6597632749907" lon="12.063551719389547"><ele>553.0</ele><time>2026-04-17T16:17:43.999Z</time></trkpt><trkpt lat="42.65985732245444" lon="12.063610193060114"><ele>553.0</ele><time>2026-04-17T16:17:44.999Z</time></trkpt><trkpt lat="42.65996722892615" lon="12.063690844734385"><ele>553.0</ele><time>2026-04-17T16:17:45.999Z</time></trkpt><trkpt lat="42.66008785403746" lon="12.06376824243876"><ele>553.0</ele><time>2026-04-17T16:17:46.999Z</time></trkpt><trkpt lat="42.66020904744837" lon="12.063844107438427"><ele>553.0</ele><time>2026-04-17T16:17:47.999Z</time></trkpt><trkpt lat="42.660324747728005" lon="12.063916112036745"><ele>551.8</ele><time>2026-04-17T16:17:48.999Z</time></trkpt><trkpt lat="42.660430555841195" lon="12.063980883268576"><ele>550.5999999999999</ele><time>2026-04-17T16:17:49.999Z</time></trkpt><trkpt lat="42.66052746270425" lon="12.064038420470048"><ele>549.4000000000001</ele><time>2026-04-17T16:17:50.999Z</time></trkpt><trkpt lat="42.6606118908252" lon="12.064091011654982"><ele>548.2</ele><time>2026-04-17T16:17:51.999Z</time></trkpt><trkpt lat="42.66068779689965" lon="12.06413274127887"><ele>547.0</ele><time>2026-04-17T16:17:52.999Z</time></trkpt><trkpt lat="42.660767156214185" lon="12.064175764313653"><ele>547.0</ele><time>2026-04-17T16:17:53.999Z</time></trkpt><trkpt lat="42.66085972513609" lon="12.064202823294702"><ele>547.0</ele><time>2026-04-17T16:17:54.999Z</time></trkpt><trkpt lat="42.66096717110083" lon="12.064228130199016"><ele>547.0</ele><time>2026-04-17T16:17:55.999Z</time></trkpt><trkpt lat="42.66108112736831" lon="12.064245570067746"><ele>547.0</ele><time>2026-04-17T16:17:56.999Z</time></trkpt><trkpt lat="42.66120181862765" lon="12.064265188680288"><ele>547.0</ele><time>2026-04-17T16:17:57.999Z</time></trkpt><trkpt lat="42.661303714445324" lon="12.064272351302101"><ele>546.1666666666667</ele><time>2026-04-17T16:17:58.999Z</time></trkpt><trkpt lat="42.6613956466755" lon="12.064276823482544"><ele>545.3333333333334</ele><time>2026-04-17T16:17:59.999Z</time></trkpt><trkpt lat="42.66148903442277" lon="12.064278264507546"><ele>544.5</ele><time>2026-04-17T16:18:00.999Z</time></trkpt><trkpt lat="42.6615771328597" lon="12.064316438171149"><ele>543.6666666666666</ele><time>2026-04-17T16:18:01.999Z</time></trkpt><trkpt lat="42.66165363675312" lon="12.064336386542493"><ele>542.8333333333333</ele><time>2026-04-17T16:18:02.999Z</time></trkpt><trkpt lat="42.661728944676405" lon="12.064366976155275"><ele>542.0</ele><time>2026-04-17T16:18:03.999Z</time></trkpt><trkpt lat="42.66180683138219" lon="12.06438627641512"><ele>542.0</ele><time>2026-04-17T16:18:04.999Z</time></trkpt><trkpt lat="42.66187408188693" lon="12.064435452334742"><ele>542.0</ele><time>2026-04-17T16:18:05.999Z</time></trkpt><trkpt lat="42.661942345726374" lon="12.064487807088632"><ele>542.0</ele><time>2026-04-17T16:18:06.999Z</time></trkpt><trkpt lat="42.66201233214865" lon="12.064516158176088"><ele>542.0</ele><time>2026-04-17T16:18:07.999Z</time></trkpt><trkpt lat="42.66207514386031" lon="12.064534661924542"><ele>542.0</ele><time>2026-04-17T16:18:08.999Z</time></trkpt><trkpt lat="42.66214449193673" lon="12.064551673500311"><ele>542.0</ele><time>2026-04-17T16:18:09.999Z</time></trkpt><trkpt lat="42.66220785925853" lon="12.064548147551362"><ele>542.0</ele><time>2026-04-17T16:18:10.999Z</time></trkpt><trkpt lat="42.66227889424598" lon="12.064533991372981"><ele>540.8000000000001</ele><time>2026-04-17T16:18:11.999Z</time></trkpt><trkpt lat="42.66237605283812" lon="12.064498693109073"><ele>539.6</ele><time>2026-04-17T16:18:12.999Z</time></trkpt><trkpt lat="42.662477092315974" lon="12.064425164662735"><ele>538.4000000000001</ele><time>2026-04-17T16:18:13.999Z</time></trkpt><trkpt lat="42.66255220570748" lon="12.064370512065143"><ele>537.2</ele><time>2026-04-17T16:18:14.999Z</time></trkpt><trkpt lat="42.66261203645719" lon="12.064331325867863"><ele>536.0</ele><time>2026-04-17T16:18:15.999Z</time></trkpt><trkpt lat="42.66269652091866" lon="12.064346742902613"><ele>534.6</ele><time>2026-04-17T16:18:16.999Z</time></trkpt><trkpt lat="42.662803522961596" lon="12.064365076978133"><ele>533.2</ele><time>2026-04-17T16:18:17.999Z</time></trkpt><trkpt lat="42.66289636694641" lon="12.064376354013122"><ele>531.8</ele><time>2026-04-17T16:18:18.999Z</time></trkpt><trkpt lat="42.66296597272706" lon="12.064404994252063"><ele>530.4</ele><time>2026-04-17T16:18:19.999Z</time></trkpt><trkpt lat="42.66310433536256" lon="12.064458063660881"><ele>529.0</ele><time>2026-04-17T16:18:21.999Z</time></trkpt><trkpt lat="42.663178425071784" lon="12.064513784550794"><ele>529.0</ele><time>2026-04-17T16:18:22.999Z</time></trkpt><trkpt lat="42.663241475852466" lon="12.064591687330074"><ele>529.0</ele><time>2026-04-17T16:18:23.999Z</time></trkpt><trkpt lat="42.66329157096125" lon="12.064650146598597"><ele>529.0</ele><time>2026-04-17T16:18:24.999Z</time></trkpt><trkpt lat="42.663345191309716" lon="12.064712114951192"><ele>529.0</ele><time>2026-04-17T16:18:25.999Z</time></trkpt><trkpt lat="42.66339994848029" lon="12.064775396757563"><ele>529.0</ele><time>2026-04-17T16:18:26.999Z</time></trkpt><trkpt lat="42.66345602892763" lon="12.064827526573438"><ele>529.0</ele><time>2026-04-17T16:18:27.999Z</time></trkpt><trkpt lat="42.66351070408452" lon="12.064873234243736"><ele>529.0</ele><time>2026-04-17T16:18:28.999Z</time></trkpt><trkpt lat="42.663575324155374" lon="12.064890326633336"><ele>528.5</ele><time>2026-04-17T16:18:29.999Z</time></trkpt><trkpt lat="42.6636570763505" lon="12.064908762561103"><ele>528.0</ele><time>2026-04-17T16:18:30.999Z</time></trkpt><trkpt lat="42.66376447893093" lon="12.064855675781846"><ele>527.5</ele><time>2026-04-17T16:18:31.999Z</time></trkpt><trkpt lat="42.66388336570386" lon="12.064821991275238"><ele>527.0</ele><time>2026-04-17T16:18:32.999Z</time></trkpt><trkpt lat="42.66403266150972" lon="12.064793455049806"><ele>527.0</ele><time>2026-04-17T16:18:33.999Z</time></trkpt><trkpt lat="42.664196296462926" lon="12.064769947899887"><ele>527.0</ele><time>2026-04-17T16:18:34.999Z</time></trkpt><trkpt lat="42.664374027238125" lon="12.0647475743275"><ele>527.0</ele><time>2026-04-17T16:18:35.999Z</time></trkpt><trkpt lat="42.66455848765038" lon="12.064731560261338"><ele>528.5</ele><time>2026-04-17T16:18:36.999Z</time></trkpt><trkpt lat="42.6647104697804" lon="12.06474201830437"><ele>530.0</ele><time>2026-04-17T16:18:37.999Z</time></trkpt><trkpt lat="42.66483189391923" lon="12.064731079054093"><ele>531.5</ele><time>2026-04-17T16:18:38.999Z</time></trkpt><trkpt lat="42.66494926891914" lon="12.064708006803297"><ele>533.0</ele><time>2026-04-17T16:18:39.999Z</time></trkpt><trkpt lat="42.66507258147481" lon="12.064678535449413"><ele>533.0</ele><time>2026-04-17T16:18:40.999Z</time></trkpt><trkpt lat="42.66517807235161" lon="12.064641973276597"><ele>533.0</ele><time>2026-04-17T16:18:41.999Z</time></trkpt><trkpt lat="42.66527085268871" lon="12.06465207274746"><ele>533.0</ele><time>2026-04-17T16:18:42.999Z</time></trkpt><trkpt lat="42.665350825514814" lon="12.064671859184088"><ele>533.0</ele><time>2026-04-17T16:18:43.999Z</time></trkpt><trkpt lat="42.66543642767266" lon="12.064719870209823"><ele>533.0</ele><time>2026-04-17T16:18:44.999Z</time></trkpt><trkpt lat="42.66553924409705" lon="12.06480592837737"><ele>533.5</ele><time>2026-04-17T16:18:45.999Z</time></trkpt><trkpt lat="42.665649895347244" lon="12.064876487926858"><ele>534.0</ele><time>2026-04-17T16:18:46.999Z</time></trkpt><trkpt lat="42.66576047653122" lon="12.064940308690705"><ele>534.5</ele><time>2026-04-17T16:18:47.999Z</time></trkpt><trkpt lat="42.66590338961347" lon="12.064981431276852"><ele>535.0</ele><time>2026-04-17T16:18:48.999Z</time></trkpt><trkpt lat="42.66606638906642" lon="12.064999756476995"><ele>535.0</ele><time>2026-04-17T16:18:49.999Z</time></trkpt><trkpt lat="42.66620464029807" lon="12.065056468941961"><ele>535.0</ele><time>2026-04-17T16:18:50.999Z</time></trkpt><trkpt lat="42.66630981163914" lon="12.065074215541818"><ele>535.0</ele><time>2026-04-17T16:18:51.999Z</time></trkpt><trkpt lat="42.666393049321535" lon="12.06511089942627"><ele>535.0</ele><time>2026-04-17T16:18:52.999Z</time></trkpt><trkpt lat="42.66646033315008" lon="12.065135878394122"><ele>535.0</ele><time>2026-04-17T16:18:53.999Z</time></trkpt><trkpt lat="42.6665608484945" lon="12.065179700420021"><ele>535.0</ele><time>2026-04-17T16:18:55.999Z</time></trkpt><trkpt lat="42.66669295959334" lon="12.065195489780335"><ele>535.0</ele><time>2026-04-17T16:18:57.999Z</time></trkpt><trkpt lat="42.66678590478776" lon="12.065196761018965"><ele>535.0</ele><time>2026-04-17T16:18:58.999Z</time></trkpt><trkpt lat="42.66688631017131" lon="12.065194091360656"><ele>535.0</ele><time>2026-04-17T16:18:59.999Z</time></trkpt><trkpt lat="42.66699126518817" lon="12.065226164690706"><ele>535.0</ele><time>2026-04-17T16:19:00.999Z</time></trkpt><trkpt lat="42.66711209297166" lon="12.065199441272034"><ele>535.75</ele><time>2026-04-17T16:19:01.999Z</time></trkpt><trkpt lat="42.66722766713475" lon="12.065188346300724"><ele>536.5</ele><time>2026-04-17T16:19:02.999Z</time></trkpt><trkpt lat="42.66734724182115" lon="12.065168616371045"><ele>537.25</ele><time>2026-04-17T16:19:03.999Z</time></trkpt><trkpt lat="42.66747378834497" lon="12.065135215015708"><ele>538.0</ele><time>2026-04-17T16:19:04.999Z</time></trkpt><trkpt lat="42.667588310020925" lon="12.065103821898381"><ele>538.0</ele><time>2026-04-17T16:19:05.999Z</time></trkpt><trkpt lat="42.66768042315626" lon="12.065079272531808"><ele>538.0</ele><time>2026-04-17T16:19:06.999Z</time></trkpt><trkpt lat="42.66776122296357" lon="12.06504842501288"><ele>538.0</ele><time>2026-04-17T16:19:07.999Z</time></trkpt><trkpt lat="42.667837406710774" lon="12.064998210324397"><ele>538.0</ele><time>2026-04-17T16:19:08.999Z</time></trkpt><trkpt lat="42.66793703239581" lon="12.064956288388622"><ele>538.0</ele><time>2026-04-17T16:19:09.999Z</time></trkpt><trkpt lat="42.668047296167934" lon="12.064922497191338"><ele>536.25</ele><time>2026-04-17T16:19:10.999Z</time></trkpt><trkpt lat="42.668159028051086" lon="12.064907208704062"><ele>534.5</ele><time>2026-04-17T16:19:11.999Z</time></trkpt><trkpt lat="42.66828385933029" lon="12.064906265149643"><ele>532.75</ele><time>2026-04-17T16:19:12.999Z</time></trkpt><trkpt lat="42.668430483662604" lon="12.064903954623475"><ele>531.0</ele><time>2026-04-17T16:19:13.999Z</time></trkpt><trkpt lat="42.66858091371864" lon="12.06488633610953"><ele>529.75</ele><time>2026-04-17T16:19:14.999Z</time></trkpt><trkpt lat="42.668696530715366" lon="12.064853387177774"><ele>528.5</ele><time>2026-04-17T16:19:15.999Z</time></trkpt><trkpt lat="42.668793866450784" lon="12.064794099622965"><ele>527.25</ele><time>2026-04-17T16:19:16.999Z</time></trkpt><trkpt lat="42.668913173135" lon="12.064716381333254"><ele>526.0</ele><time>2026-04-17T16:19:17.999Z</time></trkpt><trkpt lat="42.66905064787932" lon="12.064592065327016"><ele>526.0</ele><time>2026-04-17T16:19:18.999Z</time></trkpt><trkpt lat="42.669191286375245" lon="12.064438228381645"><ele>526.0</ele><time>2026-04-17T16:19:19.999Z</time></trkpt><trkpt lat="42.66931539641099" lon="12.064299367046118"><ele>526.0</ele><time>2026-04-17T16:19:20.999Z</time></trkpt><trkpt lat="42.66942862823676" lon="12.064186901959125"><ele>523.75</ele><time>2026-04-17T16:19:21.999Z</time></trkpt><trkpt lat="42.669539900712266" lon="12.064093188290048"><ele>521.5</ele><time>2026-04-17T16:19:22.999Z</time></trkpt><trkpt lat="42.66964894881585" lon="12.06399835193652"><ele>519.25</ele><time>2026-04-17T16:19:23.999Z</time></trkpt><trkpt lat="42.66973919596674" lon="12.063899414016236"><ele>517.0</ele><time>2026-04-17T16:19:24.999Z</time></trkpt><trkpt lat="42.669797267638955" lon="12.063803194859444"><ele>517.0</ele><time>2026-04-17T16:19:25.999Z</time></trkpt><trkpt lat="42.66985820506109" lon="12.06370730360422"><ele>517.0</ele><time>2026-04-17T16:19:26.999Z</time></trkpt><trkpt lat="42.669914358392425" lon="12.063588745167465"><ele>517.0</ele><time>2026-04-17T16:19:27.999Z</time></trkpt><trkpt lat="42.669960454903226" lon="12.06344896532475"><ele>517.0</ele><time>2026-04-17T16:19:28.999Z</time></trkpt><trkpt lat="42.670000453254936" lon="12.06325216493822"><ele>517.6</ele><time>2026-04-17T16:19:29.999Z</time></trkpt><trkpt lat="42.67000106013104" lon="12.063024396840406"><ele>518.2</ele><time>2026-04-17T16:19:30.999Z</time></trkpt><trkpt lat="42.670001880704845" lon="12.062885243809475"><ele>518.8</ele><time>2026-04-17T16:19:31.999Z</time></trkpt><trkpt lat="42.66999873262483" lon="12.062776665502229"><ele>519.4</ele><time>2026-04-17T16:19:32.999Z</time></trkpt><trkpt lat="42.670043016360054" lon="12.062691092822552"><ele>520.0</ele><time>2026-04-17T16:19:33.999Z</time></trkpt><trkpt lat="42.67012850562182" lon="12.062627280623122"><ele>520.0</ele><time>2026-04-17T16:19:34.999Z</time></trkpt><trkpt lat="42.67022321935408" lon="12.062609708084688"><ele>520.0</ele><time>2026-04-17T16:19:35.999Z</time></trkpt><trkpt lat="42.67030786729887" lon="12.0625814145293"><ele>520.0</ele><time>2026-04-17T16:19:36.999Z</time></trkpt><trkpt lat="42.67037745227975" lon="12.06258362354534"><ele>520.0</ele><time>2026-04-17T16:19:37.999Z</time></trkpt><trkpt lat="42.670512661788024" lon="12.062601065207614"><ele>520.0</ele><time>2026-04-17T16:19:40.999Z</time></trkpt><trkpt lat="42.670625399419265" lon="12.062590888324557"><ele>520.0</ele><time>2026-04-17T16:19:42.999Z</time></trkpt><trkpt lat="42.67070677680962" lon="12.062591138995089"><ele>520.0</ele><time>2026-04-17T16:19:44.999Z</time></trkpt><trkpt lat="42.67079923239037" lon="12.062623185717955"><ele>520.0</ele><time>2026-04-17T16:19:48.999Z</time></trkpt><trkpt lat="42.670848625776905" lon="12.062530509825358"><ele>520.0</ele><time>2026-04-17T16:19:49.999Z</time></trkpt><trkpt lat="42.67091902675622" lon="12.062435024957141"><ele>520.0</ele><time>2026-04-17T16:19:52.999Z</time></trkpt><trkpt lat="42.67090117587873" lon="12.06232970098276"><ele>520.0</ele><time>2026-04-17T16:19:53.999Z</time></trkpt><trkpt lat="42.67087905107417" lon="12.062241441388766"><ele>520.0</ele><time>2026-04-17T16:19:54.999Z</time></trkpt><trkpt lat="42.670832868334074" lon="12.062155359687385"><ele>520.0</ele><time>2026-04-17T16:19:55.999Z</time></trkpt><trkpt lat="42.670708706988115" lon="12.062040550077958"><ele>520.0</ele><time>2026-04-17T16:19:57.999Z</time></trkpt><trkpt lat="42.67063246115985" lon="12.061968173963127"><ele>520.0</ele><time>2026-04-17T16:19:58.999Z</time></trkpt><trkpt lat="42.67052672678123" lon="12.061902606926106"><ele>520.0</ele><time>2026-04-17T16:19:59.999Z</time></trkpt><trkpt lat="42.67038949224746" lon="12.06183079275184"><ele>520.0</ele><time>2026-04-17T16:20:00.999Z</time></trkpt><trkpt lat="42.67025846279196" lon="12.061789011384299"><ele>520.0</ele><time>2026-04-17T16:20:01.999Z</time></trkpt><trkpt lat="42.67014348170027" lon="12.061734004725189"><ele>520.0</ele><time>2026-04-17T16:20:02.999Z</time></trkpt><trkpt lat="42.67002547273028" lon="12.061671745713806"><ele>520.0</ele><time>2026-04-17T16:20:03.999Z</time></trkpt><trkpt lat="42.669909425082956" lon="12.061610782705888"><ele>520.0</ele><time>2026-04-17T16:20:04.999Z</time></trkpt><trkpt lat="42.669790093044945" lon="12.061549900460303"><ele>520.0</ele><time>2026-04-17T16:20:05.999Z</time></trkpt><trkpt lat="42.669675084702966" lon="12.06147891445578"><ele>520.0</ele><time>2026-04-17T16:20:06.999Z</time></trkpt><trkpt lat="42.66957326983815" lon="12.061377625362192"><ele>520.0</ele><time>2026-04-17T16:20:07.999Z</time></trkpt><trkpt lat="42.669463820253085" lon="12.061290694494458"><ele>523.25</ele><time>2026-04-17T16:20:08.999Z</time></trkpt><trkpt lat="42.66934753388966" lon="12.061211499620683"><ele>526.5</ele><time>2026-04-17T16:20:09.999Z</time></trkpt><trkpt lat="42.66923387897136" lon="12.061110481617787"><ele>529.75</ele><time>2026-04-17T16:20:10.999Z</time></trkpt><trkpt lat="42.669119316672244" lon="12.061031316247568"><ele>533.0</ele><time>2026-04-17T16:20:11.999Z</time></trkpt><trkpt lat="42.66901745160203" lon="12.060959913388066"><ele>533.0</ele><time>2026-04-17T16:20:12.999Z</time></trkpt><trkpt lat="42.66892302411735" lon="12.060894750013054"><ele>533.0</ele><time>2026-04-17T16:20:13.999Z</time></trkpt><trkpt lat="42.6688294174352" lon="12.060833573368136"><ele>533.0</ele><time>2026-04-17T16:20:14.999Z</time></trkpt><trkpt lat="42.66871660703522" lon="12.060766023727648"><ele>533.0</ele><time>2026-04-17T16:20:15.999Z</time></trkpt><trkpt lat="42.66858523323073" lon="12.060686295136865"><ele>532.0</ele><time>2026-04-17T16:20:16.999Z</time></trkpt><trkpt lat="42.668434004841636" lon="12.06058822475397"><ele>531.0</ele><time>2026-04-17T16:20:17.999Z</time></trkpt><trkpt lat="42.668288551529216" lon="12.060492767426462"><ele>530.0</ele><time>2026-04-17T16:20:18.999Z</time></trkpt><trkpt lat="42.668155971721895" lon="12.060410139881093"><ele>530.0</ele><time>2026-04-17T16:20:19.999Z</time></trkpt><trkpt lat="42.66803188972808" lon="12.060331661820596"><ele>530.0</ele><time>2026-04-17T16:20:20.999Z</time></trkpt><trkpt lat="42.66790994663636" lon="12.060251651213685"><ele>530.0</ele><time>2026-04-17T16:20:21.999Z</time></trkpt><trkpt lat="42.667777528448" lon="12.060134554956527"><ele>530.0</ele><time>2026-04-17T16:20:22.999Z</time></trkpt><trkpt lat="42.66764648864757" lon="12.059995317160457"><ele>533.0</ele><time>2026-04-17T16:20:23.999Z</time></trkpt><trkpt lat="42.66751926305282" lon="12.059834460590654"><ele>536.0</ele><time>2026-04-17T16:20:24.999Z</time></trkpt><trkpt lat="42.66739674285162" lon="12.059676814083"><ele>539.0</ele><time>2026-04-17T16:20:25.999Z</time></trkpt><trkpt lat="42.66727587986053" lon="12.059538051331975"><ele>539.0</ele><time>2026-04-17T16:20:26.999Z</time></trkpt><trkpt lat="42.66714835492094" lon="12.059412910854803"><ele>539.0</ele><time>2026-04-17T16:20:27.999Z</time></trkpt><trkpt lat="42.667016081408086" lon="12.059315817412163"><ele>539.0</ele><time>2026-04-17T16:20:28.999Z</time></trkpt><trkpt lat="42.666872812451004" lon="12.059232958322406"><ele>539.3333333333333</ele><time>2026-04-17T16:20:29.999Z</time></trkpt><trkpt lat="42.66671457359334" lon="12.059143002970087"><ele>539.6666666666666</ele><time>2026-04-17T16:20:30.999Z</time></trkpt><trkpt lat="42.666539264046705" lon="12.059035740297963"><ele>540.0</ele><time>2026-04-17T16:20:31.999Z</time></trkpt><trkpt lat="42.666349162595715" lon="12.058899039298554"><ele>540.0</ele><time>2026-04-17T16:20:32.999Z</time></trkpt><trkpt lat="42.666167306231685" lon="12.058764130132444"><ele>540.0</ele><time>2026-04-17T16:20:33.999Z</time></trkpt><trkpt lat="42.66599957065292" lon="12.058640198473448"><ele>540.0</ele><time>2026-04-17T16:20:34.999Z</time></trkpt><trkpt lat="42.66583012780925" lon="12.05852564751012"><ele>540.6666666666666</ele><time>2026-04-17T16:20:35.999Z</time></trkpt><trkpt lat="42.66566168934798" lon="12.058419304134489"><ele>541.3333333333333</ele><time>2026-04-17T16:20:36.999Z</time></trkpt><trkpt lat="42.66550175411331" lon="12.058328390483982"><ele>542.0</ele><time>2026-04-17T16:20:37.999Z</time></trkpt><trkpt lat="42.66535264334569" lon="12.05826672158716"><ele>544.75</ele><time>2026-04-17T16:20:38.999Z</time></trkpt><trkpt lat="42.665218344759964" lon="12.058221845505795"><ele>547.5</ele><time>2026-04-17T16:20:39.999Z</time></trkpt><trkpt lat="42.6650945115879" lon="12.058150301124645"><ele>550.25</ele><time>2026-04-17T16:20:40.999Z</time></trkpt><trkpt lat="42.664976487895615" lon="12.058049006049679"><ele>553.0</ele><time>2026-04-17T16:20:41.999Z</time></trkpt><trkpt lat="42.66487230166522" lon="12.057925889725803"><ele>553.0</ele><time>2026-04-17T16:20:42.999Z</time></trkpt><trkpt lat="42.66477200567143" lon="12.057769775900402"><ele>553.0</ele><time>2026-04-17T16:20:43.999Z</time></trkpt><trkpt lat="42.66466762585462" lon="12.057582444413455"><ele>553.0</ele><time>2026-04-17T16:20:44.999Z</time></trkpt><trkpt lat="42.66455200962132" lon="12.057391627780735"><ele>554.6666666666667</ele><time>2026-04-17T16:20:45.999Z</time></trkpt><trkpt lat="42.66443885004921" lon="12.057189929664935"><ele>556.3333333333334</ele><time>2026-04-17T16:20:46.999Z</time></trkpt><trkpt lat="42.66432977248474" lon="12.056975357272917"><ele>558.0</ele><time>2026-04-17T16:20:47.999Z</time></trkpt><trkpt lat="42.66421293914568" lon="12.056741359646626"><ele>560.5</ele><time>2026-04-17T16:20:48.999Z</time></trkpt><trkpt lat="42.6640854633112" lon="12.056490084840926"><ele>563.0</ele><time>2026-04-17T16:20:49.999Z</time></trkpt><trkpt lat="42.66396069607322" lon="12.056231159582802"><ele>563.0</ele><time>2026-04-17T16:20:50.999Z</time></trkpt><trkpt lat="42.66384975652695" lon="12.056009538032367"><ele>563.0</ele><time>2026-04-17T16:20:51.999Z</time></trkpt><trkpt lat="42.66375326106279" lon="12.0558163095499"><ele>563.0</ele><time>2026-04-17T16:20:52.999Z</time></trkpt><trkpt lat="42.663659528284896" lon="12.055610740675283"><ele>563.0</ele><time>2026-04-17T16:20:53.999Z</time></trkpt><trkpt lat="42.66355830583422" lon="12.055393972770744"><ele>563.0</ele><time>2026-04-17T16:20:54.999Z</time></trkpt><trkpt lat="42.66345216104963" lon="12.05516525113192"><ele>563.0</ele><time>2026-04-17T16:20:55.999Z</time></trkpt><trkpt lat="42.66334213367156" lon="12.054934919104756"><ele>564.6666666666666</ele><time>2026-04-17T16:20:56.999Z</time></trkpt><trkpt lat="42.66322101611027" lon="12.054713874921417"><ele>566.3333333333334</ele><time>2026-04-17T16:20:57.999Z</time></trkpt><trkpt lat="42.663092905129915" lon="12.054501766981629"><ele>568.0</ele><time>2026-04-17T16:20:58.999Z</time></trkpt><trkpt lat="42.66295782880679" lon="12.054287887987766"><ele>569.0</ele><time>2026-04-17T16:20:59.999Z</time></trkpt><trkpt lat="42.66282038036566" lon="12.05406413136989"><ele>570.0</ele><time>2026-04-17T16:21:00.999Z</time></trkpt><trkpt lat="42.66269202545283" lon="12.053858823842262"><ele>571.0</ele><time>2026-04-17T16:21:01.999Z</time></trkpt><trkpt lat="42.66258378760244" lon="12.053683045289933"><ele>572.3333333333334</ele><time>2026-04-17T16:21:02.999Z</time></trkpt><trkpt lat="42.662479014801846" lon="12.053518019896655"><ele>573.6666666666666</ele><time>2026-04-17T16:21:03.999Z</time></trkpt><trkpt lat="42.662372504773494" lon="12.053355901074159"><ele>575.0</ele><time>2026-04-17T16:21:04.999Z</time></trkpt><trkpt lat="42.66226417575846" lon="12.053183841563172"><ele>575.25</ele><time>2026-04-17T16:21:05.999Z</time></trkpt><trkpt lat="42.6621624491758" lon="12.053040169336862"><ele>575.5</ele><time>2026-04-17T16:21:06.999Z</time></trkpt><trkpt lat="42.66208164745287" lon="12.052901970085617"><ele>575.75</ele><time>2026-04-17T16:21:07.999Z</time></trkpt><trkpt lat="42.66203608036279" lon="12.052738760786083"><ele>576.0</ele><time>2026-04-17T16:21:08.999Z</time></trkpt><trkpt lat="42.66195930719684" lon="12.052563827030474"><ele>576.6666666666666</ele><time>2026-04-17T16:21:09.999Z</time></trkpt><trkpt lat="42.66189411078305" lon="12.052365699104392"><ele>577.3333333333333</ele><time>2026-04-17T16:21:10.999Z</time></trkpt><trkpt lat="42.661813001860104" lon="12.052173375978363"><ele>578.0</ele><time>2026-04-17T16:21:11.999Z</time></trkpt><trkpt lat="42.661711288999655" lon="12.051991496648007"><ele>578.0</ele><time>2026-04-17T16:21:12.999Z</time></trkpt><trkpt lat="42.661599703351925" lon="12.051790134747792"><ele>578.0</ele><time>2026-04-17T16:21:13.999Z</time></trkpt><trkpt lat="42.66147681692259" lon="12.051567026670808"><ele>578.0</ele><time>2026-04-17T16:21:14.999Z</time></trkpt><trkpt lat="42.66134328422547" lon="12.05131802353586"><ele>578.0</ele><time>2026-04-17T16:21:15.999Z</time></trkpt><trkpt lat="42.66121819253866" lon="12.051081571184989"><ele>578.0</ele><time>2026-04-17T16:21:16.999Z</time></trkpt><trkpt lat="42.66111556123514" lon="12.050886895988706"><ele>578.0</ele><time>2026-04-17T16:21:17.999Z</time></trkpt><trkpt lat="42.661024677601446" lon="12.050710173782916"><ele>578.0</ele><time>2026-04-17T16:21:18.999Z</time></trkpt><trkpt lat="42.66093423727265" lon="12.050533965288544"><ele>578.0</ele><time>2026-04-17T16:21:19.999Z</time></trkpt><trkpt lat="42.66082193117094" lon="12.05035323321987"><ele>578.0</ele><time>2026-04-17T16:21:20.999Z</time></trkpt><trkpt lat="42.66066947722343" lon="12.050145232772927"><ele>576.5</ele><time>2026-04-17T16:21:21.999Z</time></trkpt><trkpt lat="42.66049691218826" lon="12.049919218041167"><ele>575.0</ele><time>2026-04-17T16:21:22.999Z</time></trkpt><trkpt lat="42.66034998424401" lon="12.049710413546322"><ele>576.0</ele><time>2026-04-17T16:21:23.999Z</time></trkpt><trkpt lat="42.66022165448443" lon="12.049512482423037"><ele>577.0</ele><time>2026-04-17T16:21:24.999Z</time></trkpt><trkpt lat="42.66009526049712" lon="12.049309594164049"><ele>578.0</ele><time>2026-04-17T16:21:25.999Z</time></trkpt><trkpt lat="42.65997189727416" lon="12.049113069759668"><ele>579.3333333333333</ele><time>2026-04-17T16:21:26.999Z</time></trkpt><trkpt lat="42.65986108859045" lon="12.048936204383391"><ele>580.6666666666666</ele><time>2026-04-17T16:21:27.999Z</time></trkpt><trkpt lat="42.65976588858091" lon="12.048779176611236"><ele>582.0</ele><time>2026-04-17T16:21:28.999Z</time></trkpt><trkpt lat="42.65968531179392" lon="12.048621434366183"><ele>582.0</ele><time>2026-04-17T16:21:29.999Z</time></trkpt><trkpt lat="42.659622509104416" lon="12.048452359034414"><ele>582.0</ele><time>2026-04-17T16:21:30.999Z</time></trkpt><trkpt lat="42.65957719858285" lon="12.048263032437049"><ele>582.0</ele><time>2026-04-17T16:21:31.999Z</time></trkpt><trkpt lat="42.659541283753555" lon="12.048046937419077"><ele>582.0</ele><time>2026-04-17T16:21:32.999Z</time></trkpt><trkpt lat="42.65952065110742" lon="12.04777601642379"><ele>583.5</ele><time>2026-04-17T16:21:33.999Z</time></trkpt><trkpt lat="42.65949088626385" lon="12.047486519923424"><ele>585.0</ele><time>2026-04-17T16:21:34.999Z</time></trkpt><trkpt lat="42.659465554802644" lon="12.047143486721618"><ele>586.0</ele><time>2026-04-17T16:21:35.999Z</time></trkpt><trkpt lat="42.65942857172689" lon="12.046819982042692"><ele>587.0</ele><time>2026-04-17T16:21:36.999Z</time></trkpt><trkpt lat="42.65940650810572" lon="12.046524811193528"><ele>587.3333333333333</ele><time>2026-04-17T16:21:37.999Z</time></trkpt><trkpt lat="42.65938519959181" lon="12.046248873385439"><ele>587.6666666666666</ele><time>2026-04-17T16:21:38.999Z</time></trkpt><trkpt lat="42.65936580100065" lon="12.045994891707267"><ele>588.0</ele><time>2026-04-17T16:21:39.999Z</time></trkpt><trkpt lat="42.65935280369426" lon="12.0457616859929"><ele>588.0</ele><time>2026-04-17T16:21:40.999Z</time></trkpt><trkpt lat="42.65933726445437" lon="12.045530075987058"><ele>588.0</ele><time>2026-04-17T16:21:41.999Z</time></trkpt><trkpt lat="42.659319487047114" lon="12.045286051145673"><ele>588.0</ele><time>2026-04-17T16:21:42.999Z</time></trkpt><trkpt lat="42.65930137219373" lon="12.045043642978877"><ele>587.0</ele><time>2026-04-17T16:21:43.999Z</time></trkpt><trkpt lat="42.659280012783796" lon="12.044804839980207"><ele>586.0</ele><time>2026-04-17T16:21:44.999Z</time></trkpt><trkpt lat="42.659261745815506" lon="12.044534715019331"><ele>585.0</ele><time>2026-04-17T16:21:45.999Z</time></trkpt><trkpt lat="42.659240787086645" lon="12.044272104101058"><ele>584.6666666666666</ele><time>2026-04-17T16:21:46.999Z</time></trkpt><trkpt lat="42.6592265226128" lon="12.04399306859456"><ele>584.3333333333333</ele><time>2026-04-17T16:21:47.999Z</time></trkpt><trkpt lat="42.65921239876085" lon="12.043741340619313"><ele>584.0</ele><time>2026-04-17T16:21:48.999Z</time></trkpt><trkpt lat="42.659197995468006" lon="12.04350684161548"><ele>583.0</ele><time>2026-04-17T16:21:49.999Z</time></trkpt><trkpt lat="42.659179864990286" lon="12.043288228009747"><ele>582.0</ele><time>2026-04-17T16:21:50.999Z</time></trkpt><trkpt lat="42.659163200235234" lon="12.043082814209429"><ele>581.0</ele><time>2026-04-17T16:21:51.999Z</time></trkpt><trkpt lat="42.65915298099655" lon="12.042886081481727"><ele>581.0</ele><time>2026-04-17T16:21:52.999Z</time></trkpt><trkpt lat="42.65915189258015" lon="12.042659265433356"><ele>581.0</ele><time>2026-04-17T16:21:53.999Z</time></trkpt><trkpt lat="42.65916795222246" lon="12.042385905695143"><ele>581.0</ele><time>2026-04-17T16:21:54.999Z</time></trkpt><trkpt lat="42.65919128820566" lon="12.042085822675427"><ele>580.3333333333333</ele><time>2026-04-17T16:21:55.999Z</time></trkpt><trkpt lat="42.65921534846841" lon="12.041786129939608"><ele>579.6666666666666</ele><time>2026-04-17T16:21:56.999Z</time></trkpt><trkpt lat="42.65923344093578" lon="12.041515254822707"><ele>579.0</ele><time>2026-04-17T16:21:57.999Z</time></trkpt><trkpt lat="42.659253352814645" lon="12.041276825376253"><ele>578.25</ele><time>2026-04-17T16:21:58.999Z</time></trkpt><trkpt lat="42.65926908265064" lon="12.041060784026197"><ele>577.5</ele><time>2026-04-17T16:21:59.999Z</time></trkpt><trkpt lat="42.659284506521566" lon="12.040869509210614"><ele>576.75</ele><time>2026-04-17T16:22:00.999Z</time></trkpt><trkpt lat="42.65929784178489" lon="12.040716730239673"><ele>576.0</ele><time>2026-04-17T16:22:01.999Z</time></trkpt><trkpt lat="42.6593214411854" lon="12.040556088398466"><ele>575.6</ele><time>2026-04-17T16:22:02.999Z</time></trkpt><trkpt lat="42.65936348336318" lon="12.040438169840295"><ele>575.2</ele><time>2026-04-17T16:22:03.999Z</time></trkpt><trkpt lat="42.65942791749507" lon="12.040344387697916"><ele>574.8</ele><time>2026-04-17T16:22:04.999Z</time></trkpt><trkpt lat="42.65952028664551" lon="12.04030747720529"><ele>574.4</ele><time>2026-04-17T16:22:05.999Z</time></trkpt><trkpt lat="42.659643082555434" lon="12.040262394830098"><ele>574.0</ele><time>2026-04-17T16:22:06.999Z</time></trkpt><trkpt lat="42.65980116120055" lon="12.0402446524552"><ele>574.0</ele><time>2026-04-17T16:22:07.999Z</time></trkpt><trkpt lat="42.65997378477357" lon="12.040212421626197"><ele>574.0</ele><time>2026-04-17T16:22:08.999Z</time></trkpt><trkpt lat="42.66014997331253" lon="12.040200551072097"><ele>574.0</ele><time>2026-04-17T16:22:09.999Z</time></trkpt><trkpt lat="42.66030569779042" lon="12.040155612224089"><ele>573.0</ele><time>2026-04-17T16:22:10.999Z</time></trkpt><trkpt lat="42.66044875716543" lon="12.040126982874344"><ele>572.0</ele><time>2026-04-17T16:22:11.999Z</time></trkpt><trkpt lat="42.66058561477031" lon="12.040133490919251"><ele>571.0</ele><time>2026-04-17T16:22:12.999Z</time></trkpt><trkpt lat="42.66072214168118" lon="12.040135088822367"><ele>570.0</ele><time>2026-04-17T16:22:13.999Z</time></trkpt><trkpt lat="42.66086219189443" lon="12.040180271540796"><ele>570.0</ele><time>2026-04-17T16:22:14.999Z</time></trkpt><trkpt lat="42.66101618050707" lon="12.040255265784321"><ele>570.0</ele><time>2026-04-17T16:22:15.999Z</time></trkpt><trkpt lat="42.661204780866235" lon="12.040368199972761"><ele>570.0</ele><time>2026-04-17T16:22:16.999Z</time></trkpt><trkpt lat="42.661379235650884" lon="12.040470900437427"><ele>567.25</ele><time>2026-04-17T16:22:17.999Z</time></trkpt><trkpt lat="42.66151580814886" lon="12.040558512773915"><ele>564.5</ele><time>2026-04-17T16:22:18.999Z</time></trkpt><trkpt lat="42.661619160306685" lon="12.040604664527491"><ele>561.75</ele><time>2026-04-17T16:22:19.999Z</time></trkpt><trkpt lat="42.661719670251664" lon="12.040640291888911"><ele>559.0</ele><time>2026-04-17T16:22:20.999Z</time></trkpt><trkpt lat="42.66182142126945" lon="12.040629260281188"><ele>559.0</ele><time>2026-04-17T16:22:21.999Z</time></trkpt><trkpt lat="42.66192302390138" lon="12.040549442568947"><ele>559.0</ele><time>2026-04-17T16:22:22.999Z</time></trkpt><trkpt lat="42.6620102225541" lon="12.040420172768302"><ele>559.0</ele><time>2026-04-17T16:22:23.999Z</time></trkpt><trkpt lat="42.66206165479019" lon="12.040259032737932"><ele>559.0</ele><time>2026-04-17T16:22:24.999Z</time></trkpt><trkpt lat="42.66208168581324" lon="12.040074908724137"><ele>558.0</ele><time>2026-04-17T16:22:25.999Z</time></trkpt><trkpt lat="42.66209840414079" lon="12.039909575392654"><ele>557.0</ele><time>2026-04-17T16:22:26.999Z</time></trkpt><trkpt lat="42.66208526142368" lon="12.039762724487234"><ele>556.0</ele><time>2026-04-17T16:22:27.999Z</time></trkpt><trkpt lat="42.662012174190686" lon="12.03962060242041"><ele>555.0</ele><time>2026-04-17T16:22:28.999Z</time></trkpt><trkpt lat="42.66188241530164" lon="12.039499065497038"><ele>555.0</ele><time>2026-04-17T16:22:29.999Z</time></trkpt><trkpt lat="42.66170670806143" lon="12.039380330567598"><ele>555.0</ele><time>2026-04-17T16:22:30.999Z</time></trkpt><trkpt lat="42.66154875166612" lon="12.039205598652977"><ele>555.0</ele><time>2026-04-17T16:22:31.999Z</time></trkpt><trkpt lat="42.661426078104775" lon="12.039029354597824"><ele>555.0</ele><time>2026-04-17T16:22:32.999Z</time></trkpt><trkpt lat="42.661312602401615" lon="12.038869746089471"><ele>555.0</ele><time>2026-04-17T16:22:33.999Z</time></trkpt><trkpt lat="42.66122142501659" lon="12.03871108577167"><ele>555.0</ele><time>2026-04-17T16:22:34.999Z</time></trkpt><trkpt lat="42.66113259225498" lon="12.038571224763915"><ele>555.0</ele><time>2026-04-17T16:22:35.999Z</time></trkpt><trkpt lat="42.661032249608176" lon="12.038426786028062"><ele>552.6666666666666</ele><time>2026-04-17T16:22:36.999Z</time></trkpt><trkpt lat="42.660917352578835" lon="12.038264023836815"><ele>550.3333333333333</ele><time>2026-04-17T16:22:37.999Z</time></trkpt><trkpt lat="42.66080010803852" lon="12.038102536893634"><ele>548.0</ele><time>2026-04-17T16:22:38.999Z</time></trkpt><trkpt lat="42.66068402874399" lon="12.037943032977685"><ele>548.0</ele><time>2026-04-17T16:22:39.999Z</time></trkpt><trkpt lat="42.66059426821281" lon="12.037803959150859"><ele>548.0</ele><time>2026-04-17T16:22:40.999Z</time></trkpt><trkpt lat="42.660531055082515" lon="12.037658253701204"><ele>548.0</ele><time>2026-04-17T16:22:41.999Z</time></trkpt><trkpt lat="42.660497563635666" lon="12.037506261987444"><ele>548.0</ele><time>2026-04-17T16:22:42.999Z</time></trkpt><trkpt lat="42.66052520910678" lon="12.03735351047415"><ele>547.25</ele><time>2026-04-17T16:22:43.999Z</time></trkpt><trkpt lat="42.660537206189986" lon="12.03719727471164"><ele>546.5</ele><time>2026-04-17T16:22:44.999Z</time></trkpt><trkpt lat="42.660572518616526" lon="12.037032836456037"><ele>545.75</ele><time>2026-04-17T16:22:45.999Z</time></trkpt><trkpt lat="42.66060023330787" lon="12.036850775048514"><ele>545.0</ele><time>2026-04-17T16:22:46.999Z</time></trkpt><trkpt lat="42.660649040386396" lon="12.036671173463434"><ele>543.25</ele><time>2026-04-17T16:22:47.999Z</time></trkpt><trkpt lat="42.66071278060769" lon="12.036514638187905"><ele>541.5</ele><time>2026-04-17T16:22:48.999Z</time></trkpt><trkpt lat="42.66078979319591" lon="12.036389732971806"><ele>539.75</ele><time>2026-04-17T16:22:49.999Z</time></trkpt><trkpt lat="42.66089809689967" lon="12.036290339760964"><ele>538.0</ele><time>2026-04-17T16:22:50.999Z</time></trkpt><trkpt lat="42.66103621114939" lon="12.036140350881295"><ele>537.6666666666667</ele><time>2026-04-17T16:22:51.999Z</time></trkpt><trkpt lat="42.66118049854907" lon="12.03596461610974"><ele>537.3333333333334</ele><time>2026-04-17T16:22:52.999Z</time></trkpt><trkpt lat="42.66132455578709" lon="12.035803827221567"><ele>537.0</ele><time>2026-04-17T16:22:53.999Z</time></trkpt><trkpt lat="42.66149361253134" lon="12.035649061892041"><ele>536.5</ele><time>2026-04-17T16:22:54.999Z</time></trkpt><trkpt lat="42.66166851930546" lon="12.035460286780722"><ele>536.0</ele><time>2026-04-17T16:22:55.999Z</time></trkpt><trkpt lat="42.66184199088606" lon="12.035249788422878"><ele>536.0</ele><time>2026-04-17T16:22:56.999Z</time></trkpt><trkpt lat="42.66199548101751" lon="12.03508836441727"><ele>536.0</ele><time>2026-04-17T16:22:57.999Z</time></trkpt><trkpt lat="42.66212056401653" lon="12.03496277122534"><ele>536.0</ele><time>2026-04-17T16:22:58.999Z</time></trkpt><trkpt lat="42.6622109704948" lon="12.034855892262959"><ele>535.5</ele><time>2026-04-17T16:22:59.999Z</time></trkpt><trkpt lat="42.6622810616264" lon="12.034725673225802"><ele>535.0</ele><time>2026-04-17T16:23:00.999Z</time></trkpt><trkpt lat="42.66232734712031" lon="12.034563640393108"><ele>534.5</ele><time>2026-04-17T16:23:01.999Z</time></trkpt><trkpt lat="42.66235330847068" lon="12.034362533210722"><ele>534.0</ele><time>2026-04-17T16:23:02.999Z</time></trkpt><trkpt lat="42.66235916683821" lon="12.034142063903541"><ele>535.0</ele><time>2026-04-17T16:23:03.999Z</time></trkpt><trkpt lat="42.66237149512179" lon="12.03392838265941"><ele>536.0</ele><time>2026-04-17T16:23:04.999Z</time></trkpt><trkpt lat="42.662386970549484" lon="12.033690836062414"><ele>537.0</ele><time>2026-04-17T16:23:05.999Z</time></trkpt><trkpt lat="42.66239960257025" lon="12.033457349409387"><ele>537.3333333333334</ele><time>2026-04-17T16:23:06.999Z</time></trkpt><trkpt lat="42.66241686128062" lon="12.03322817229482"><ele>537.6666666666667</ele><time>2026-04-17T16:23:07.999Z</time></trkpt><trkpt lat="42.662432853223294" lon="12.033022578908929"><ele>538.0</ele><time>2026-04-17T16:23:08.999Z</time></trkpt><trkpt lat="42.662437323146634" lon="12.032839955519115"><ele>538.0</ele><time>2026-04-17T16:23:09.999Z</time></trkpt><trkpt lat="42.66243078131339" lon="12.032654347670608"><ele>538.0</ele><time>2026-04-17T16:23:10.999Z</time></trkpt><trkpt lat="42.66241473966139" lon="12.032470818442919"><ele>538.0</ele><time>2026-04-17T16:23:11.999Z</time></trkpt><trkpt lat="42.662381487871265" lon="12.032314937940836"><ele>538.0</ele><time>2026-04-17T16:23:12.999Z</time></trkpt><trkpt lat="42.66232457723115" lon="12.032166978625424"><ele>538.6</ele><time>2026-04-17T16:23:13.999Z</time></trkpt><trkpt lat="42.66223508932508" lon="12.03203345044322"><ele>539.1999999999999</ele><time>2026-04-17T16:23:14.999Z</time></trkpt><trkpt lat="42.662153630373545" lon="12.031938134339127"><ele>539.8</ele><time>2026-04-17T16:23:15.999Z</time></trkpt><trkpt lat="42.66209472481174" lon="12.031880822739884"><ele>540.4</ele><time>2026-04-17T16:23:17Z</time></trkpt><trkpt lat="42.66203402509548" lon="12.031794207200337"><ele>541.0</ele><time>2026-04-17T16:23:19Z</time></trkpt><trkpt lat="42.6620036002538" lon="12.031705074725183"><ele>541.0</ele><time>2026-04-17T16:23:22Z</time></trkpt><trkpt lat="42.66195150323446" lon="12.031642871945875"><ele>541.0</ele><time>2026-04-17T16:23:39.999Z</time></trkpt><trkpt lat="42.66190578433678" lon="12.031578482101974"><ele>541.0</ele><time>2026-04-17T16:23:40.999Z</time></trkpt><trkpt lat="42.66180547698041" lon="12.031532652484549"><ele>541.0</ele><time>2026-04-17T16:23:41.999Z</time></trkpt><trkpt lat="42.66170398448756" lon="12.031446391422241"><ele>541.0</ele><time>2026-04-17T16:23:42.999Z</time></trkpt><trkpt lat="42.6615878853218" lon="12.031327028666627"><ele>544.3333333333334</ele><time>2026-04-17T16:23:43.999Z</time></trkpt><trkpt lat="42.66145233359798" lon="12.031180458097682"><ele>547.6666666666666</ele><time>2026-04-17T16:23:44.999Z</time></trkpt><trkpt lat="42.661328178576284" lon="12.031051053693634"><ele>551.0</ele><time>2026-04-17T16:23:45.999Z</time></trkpt><trkpt lat="42.661208125960556" lon="12.030938155129185"><ele>551.3333333333333</ele><time>2026-04-17T16:23:46.999Z</time></trkpt><trkpt lat="42.66106895375786" lon="12.030849590821962"><ele>551.6666666666666</ele><time>2026-04-17T16:23:47.999Z</time></trkpt><trkpt lat="42.66091761990239" lon="12.030779209083653"><ele>552.0</ele><time>2026-04-17T16:23:48.999Z</time></trkpt><trkpt lat="42.66078623208142" lon="12.030722084521974"><ele>553.2</ele><time>2026-04-17T16:23:49.999Z</time></trkpt><trkpt lat="42.66069271315777" lon="12.030681424530425"><ele>554.4000000000001</ele><time>2026-04-17T16:23:50.999Z</time></trkpt><trkpt lat="42.66060098912" lon="12.03067412509617"><ele>555.5999999999999</ele><time>2026-04-17T16:23:51.999Z</time></trkpt><trkpt lat="42.66055226123083" lon="12.030568520816471"><ele>556.8</ele><time>2026-04-17T16:23:52.999Z</time></trkpt><trkpt lat="42.66052839852086" lon="12.030440707159695"><ele>558.0</ele><time>2026-04-17T16:23:53.999Z</time></trkpt><trkpt lat="42.660527499005376" lon="12.030282142993146"><ele>558.0</ele><time>2026-04-17T16:23:54.999Z</time></trkpt><trkpt lat="42.66052585279058" lon="12.030089498817722"><ele>558.0</ele><time>2026-04-17T16:23:55.999Z</time></trkpt><trkpt lat="42.66052050429516" lon="12.029869412203857"><ele>558.0</ele><time>2026-04-17T16:23:56.999Z</time></trkpt><trkpt lat="42.66050811136764" lon="12.029666469628381"><ele>558.0</ele><time>2026-04-17T16:23:57.999Z</time></trkpt><trkpt lat="42.6604833678353" lon="12.029480745742905"><ele>558.0</ele><time>2026-04-17T16:23:58.999Z</time></trkpt><trkpt lat="42.66042844537115" lon="12.029311967030688"><ele>558.0</ele><time>2026-04-17T16:23:59.999Z</time></trkpt><trkpt lat="42.66035046786822" lon="12.02916406462478"><ele>558.0</ele><time>2026-04-17T16:24:00.999Z</time></trkpt><trkpt lat="42.660229439419034" lon="12.029060562319298"><ele>559.6666666666666</ele><time>2026-04-17T16:24:01.999Z</time></trkpt><trkpt lat="42.66007252698217" lon="12.028989167495055"><ele>561.3333333333333</ele><time>2026-04-17T16:24:02.999Z</time></trkpt><trkpt lat="42.6598982948775" lon="12.028926800131353"><ele>563.0</ele><time>2026-04-17T16:24:03.999Z</time></trkpt><trkpt lat="42.659742362297564" lon="12.028859566312875"><ele>563.0</ele><time>2026-04-17T16:24:04.999Z</time></trkpt><trkpt lat="42.659618052525055" lon="12.028784538211877"><ele>563.0</ele><time>2026-04-17T16:24:05.999Z</time></trkpt><trkpt lat="42.659525321270245" lon="12.028682618654432"><ele>563.0</ele><time>2026-04-17T16:24:06.999Z</time></trkpt><trkpt lat="42.65945327756937" lon="12.028535825188571"><ele>563.0</ele><time>2026-04-17T16:24:07.999Z</time></trkpt><trkpt lat="42.65941104448071" lon="12.028339985430561"><ele>563.0</ele><time>2026-04-17T16:24:08.999Z</time></trkpt><trkpt lat="42.659376037985325" lon="12.02812889080785"><ele>563.0</ele><time>2026-04-17T16:24:09.999Z</time></trkpt><trkpt lat="42.65933067110996" lon="12.027904804160746"><ele>563.0</ele><time>2026-04-17T16:24:10.999Z</time></trkpt><trkpt lat="42.65928052233343" lon="12.027665490296119"><ele>564.0</ele><time>2026-04-17T16:24:11.999Z</time></trkpt><trkpt lat="42.659228745645756" lon="12.027435830439217"><ele>565.0</ele><time>2026-04-17T16:24:12.999Z</time></trkpt><trkpt lat="42.65917187792376" lon="12.027190768659313"><ele>566.0</ele><time>2026-04-17T16:24:13.999Z</time></trkpt><trkpt lat="42.65911097519108" lon="12.02694025379665"><ele>566.0</ele><time>2026-04-17T16:24:14.999Z</time></trkpt><trkpt lat="42.65904620833194" lon="12.026685572713708"><ele>566.0</ele><time>2026-04-17T16:24:15.999Z</time></trkpt><trkpt lat="42.65896860240552" lon="12.026449315023825"><ele>566.0</ele><time>2026-04-17T16:24:16.999Z</time></trkpt><trkpt lat="42.65886728134398" lon="12.026235965635976"><ele>567.0</ele><time>2026-04-17T16:24:17.999Z</time></trkpt><trkpt lat="42.658758091647876" lon="12.026036828781164"><ele>568.0</ele><time>2026-04-17T16:24:18.999Z</time></trkpt><trkpt lat="42.658661605399125" lon="12.025845358623798"><ele>569.0</ele><time>2026-04-17T16:24:19.999Z</time></trkpt><trkpt lat="42.65857796992473" lon="12.02563959456089"><ele>570.0</ele><time>2026-04-17T16:24:20.999Z</time></trkpt><trkpt lat="42.658506836160115" lon="12.025422500134608"><ele>571.0</ele><time>2026-04-17T16:24:21.999Z</time></trkpt><trkpt lat="42.65844390135035" lon="12.02520647784008"><ele>572.0</ele><time>2026-04-17T16:24:22.999Z</time></trkpt><trkpt lat="42.658379550213404" lon="12.025012406602443"><ele>572.25</ele><time>2026-04-17T16:24:23.999Z</time></trkpt><trkpt lat="42.65834104154705" lon="12.024846592058323"><ele>572.5</ele><time>2026-04-17T16:24:24.999Z</time></trkpt><trkpt lat="42.65832911432014" lon="12.024684975648272"><ele>572.75</ele><time>2026-04-17T16:24:25.999Z</time></trkpt><trkpt lat="42.65834755589022" lon="12.02453531600858"><ele>573.0</ele><time>2026-04-17T16:24:26.999Z</time></trkpt><trkpt lat="42.658440355339636" lon="12.024343851774148"><ele>573.0</ele><time>2026-04-17T16:24:27.999Z</time></trkpt><trkpt lat="42.65853475102163" lon="12.024187278090078"><ele>573.0</ele><time>2026-04-17T16:24:28.999Z</time></trkpt><trkpt lat="42.658623087736856" lon="12.0240436456688"><ele>573.0</ele><time>2026-04-17T16:24:29.999Z</time></trkpt><trkpt lat="42.65868030914215" lon="12.02390544663909"><ele>573.0</ele><time>2026-04-17T16:24:30.999Z</time></trkpt><trkpt lat="42.658702441376846" lon="12.023737397708445"><ele>576.0</ele><time>2026-04-17T16:24:31.999Z</time></trkpt><trkpt lat="42.65869737315136" lon="12.023530979253474"><ele>579.0</ele><time>2026-04-17T16:24:32.999Z</time></trkpt><trkpt lat="42.658671472224334" lon="12.023310022839624"><ele>582.0</ele><time>2026-04-17T16:24:33.999Z</time></trkpt><trkpt lat="42.658633557218515" lon="12.023090676542804"><ele>580.6666666666666</ele><time>2026-04-17T16:24:34.999Z</time></trkpt><trkpt lat="42.65857750449218" lon="12.0228729178671"><ele>579.3333333333333</ele><time>2026-04-17T16:24:35.999Z</time></trkpt><trkpt lat="42.65851387863286" lon="12.022693035082328"><ele>578.0</ele><time>2026-04-17T16:24:36.999Z</time></trkpt><trkpt lat="42.65843440216043" lon="12.022533810664022"><ele>579.6666666666666</ele><time>2026-04-17T16:24:37.999Z</time></trkpt><trkpt lat="42.6583256354657" lon="12.022420901167264"><ele>581.3333333333334</ele><time>2026-04-17T16:24:38.999Z</time></trkpt><trkpt lat="42.65817371678768" lon="12.022321098436542"><ele>583.0</ele><time>2026-04-17T16:24:39.999Z</time></trkpt><trkpt lat="42.65800433568543" lon="12.022259782976985"><ele>583.0</ele><time>2026-04-17T16:24:40.999Z</time></trkpt><trkpt lat="42.657873074950885" lon="12.022194388207375"><ele>583.0</ele><time>2026-04-17T16:24:41.999Z</time></trkpt><trkpt lat="42.65776471240865" lon="12.022075994066187"><ele>583.0</ele><time>2026-04-17T16:24:42.999Z</time></trkpt><trkpt lat="42.657664549023764" lon="12.021907670686137"><ele>583.0</ele><time>2026-04-17T16:24:43.999Z</time></trkpt><trkpt lat="42.65757130383662" lon="12.021710195804864"><ele>582.0</ele><time>2026-04-17T16:24:44.999Z</time></trkpt><trkpt lat="42.65749220285937" lon="12.021496915142004"><ele>581.0</ele><time>2026-04-17T16:24:45.999Z</time></trkpt><trkpt lat="42.65741909124672" lon="12.021296855787535"><ele>580.0</ele><time>2026-04-17T16:24:46.999Z</time></trkpt><trkpt lat="42.65737570035215" lon="12.021120841557707"><ele>580.0</ele><time>2026-04-17T16:24:47.999Z</time></trkpt><trkpt lat="42.65737401427273" lon="12.020962447028921"><ele>580.0</ele><time>2026-04-17T16:24:48.999Z</time></trkpt><trkpt lat="42.657413358547686" lon="12.020786167524218"><ele>580.0</ele><time>2026-04-17T16:24:49.999Z</time></trkpt><trkpt lat="42.657463544581546" lon="12.020601964629499"><ele>580.0</ele><time>2026-04-17T16:24:50.999Z</time></trkpt><trkpt lat="42.65746853144368" lon="12.020399391073136"><ele>579.6666666666667</ele><time>2026-04-17T16:24:51.999Z</time></trkpt><trkpt lat="42.657410728273504" lon="12.020174641715496"><ele>579.3333333333334</ele><time>2026-04-17T16:24:52.999Z</time></trkpt><trkpt lat="42.65734744888244" lon="12.019977142297867"><ele>579.0</ele><time>2026-04-17T16:24:53.999Z</time></trkpt><trkpt lat="42.657255596304246" lon="12.019808109432143"><ele>577.3333333333334</ele><time>2026-04-17T16:24:54.999Z</time></trkpt><trkpt lat="42.65713368027761" lon="12.01965954970453"><ele>575.6666666666667</ele><time>2026-04-17T16:24:55.999Z</time></trkpt><trkpt lat="42.656985689086184" lon="12.019526941165607"><ele>574.0</ele><time>2026-04-17T16:24:56.999Z</time></trkpt><trkpt lat="42.65684223876063" lon="12.019411863813612"><ele>574.0</ele><time>2026-04-17T16:24:57.999Z</time></trkpt><trkpt lat="42.65672289657897" lon="12.019285961805805"><ele>574.0</ele><time>2026-04-17T16:24:58.999Z</time></trkpt><trkpt lat="42.656622351975955" lon="12.019118588596955"><ele>574.0</ele><time>2026-04-17T16:24:59.999Z</time></trkpt><trkpt lat="42.65653985853465" lon="12.018919988859547"><ele>574.6666666666667</ele><time>2026-04-17T16:25:00.999Z</time></trkpt><trkpt lat="42.65645868782955" lon="12.018746097045291"><ele>575.3333333333334</ele><time>2026-04-17T16:25:01.999Z</time></trkpt><trkpt lat="42.65634973204784" lon="12.018607000103508"><ele>576.0</ele><time>2026-04-17T16:25:02.999Z</time></trkpt><trkpt lat="42.65619951133289" lon="12.018525447632339"><ele>574.6666666666666</ele><time>2026-04-17T16:25:03.999Z</time></trkpt><trkpt lat="42.65602728015671" lon="12.018479823321162"><ele>573.3333333333333</ele><time>2026-04-17T16:25:04.999Z</time></trkpt><trkpt lat="42.65586404368366" lon="12.018437731238983"><ele>572.0</ele><time>2026-04-17T16:25:05.999Z</time></trkpt><trkpt lat="42.65571691303933" lon="12.018392170094279"><ele>572.0</ele><time>2026-04-17T16:25:06.999Z</time></trkpt><trkpt lat="42.655582433846135" lon="12.018327994051992"><ele>572.0</ele><time>2026-04-17T16:25:07.999Z</time></trkpt><trkpt lat="42.65543891030834" lon="12.018230466812208"><ele>572.0</ele><time>2026-04-17T16:25:08.999Z</time></trkpt><trkpt lat="42.65528777197176" lon="12.018135605722884"><ele>570.0</ele><time>2026-04-17T16:25:09.999Z</time></trkpt><trkpt lat="42.65512205708487" lon="12.018064949154535"><ele>568.0</ele><time>2026-04-17T16:25:10.999Z</time></trkpt><trkpt lat="42.65491741267938" lon="12.018009707049256"><ele>566.0</ele><time>2026-04-17T16:25:11.999Z</time></trkpt><trkpt lat="42.65469945615424" lon="12.017963052647982"><ele>566.0</ele><time>2026-04-17T16:25:12.999Z</time></trkpt><trkpt lat="42.65448800122424" lon="12.017916332230689"><ele>566.0</ele><time>2026-04-17T16:25:13.999Z</time></trkpt><trkpt lat="42.65430352702893" lon="12.017880807068822"><ele>566.0</ele><time>2026-04-17T16:25:14.999Z</time></trkpt><trkpt lat="42.65412886283705" lon="12.017866648524057"><ele>563.5</ele><time>2026-04-17T16:25:15.999Z</time></trkpt><trkpt lat="42.653923596963295" lon="12.017897391823663"><ele>561.0</ele><time>2026-04-17T16:25:16.999Z</time></trkpt><trkpt lat="42.65368094736288" lon="12.017954218341073"><ele>559.6666666666666</ele><time>2026-04-17T16:25:17.999Z</time></trkpt><trkpt lat="42.65345076693393" lon="12.018005315902977"><ele>558.3333333333333</ele><time>2026-04-17T16:25:18.999Z</time></trkpt><trkpt lat="42.65324920550232" lon="12.018052568448464"><ele>557.0</ele><time>2026-04-17T16:25:19.999Z</time></trkpt><trkpt lat="42.653063606655415" lon="12.018076706381066"><ele>557.0</ele><time>2026-04-17T16:25:20.999Z</time></trkpt><trkpt lat="42.65286809066528" lon="12.018051629987829"><ele>557.0</ele><time>2026-04-17T16:25:21.999Z</time></trkpt><trkpt lat="42.65265370063364" lon="12.017929677894603"><ele>557.0</ele><time>2026-04-17T16:25:23Z</time></trkpt><trkpt lat="42.652395168144686" lon="12.017786738975987"><ele>555.5</ele><time>2026-04-17T16:25:24Z</time></trkpt><trkpt lat="42.6521041699547" lon="12.01763995268552"><ele>554.0</ele><time>2026-04-17T16:25:25Z</time></trkpt><trkpt lat="42.651809929718944" lon="12.017461679070646"><ele>552.0</ele><time>2026-04-17T16:25:26Z</time></trkpt><trkpt lat="42.651554905512015" lon="12.017296742116185"><ele>550.0</ele><time>2026-04-17T16:25:27Z</time></trkpt><trkpt lat="42.651351405536964" lon="12.017161261800268"><ele>550.0</ele><time>2026-04-17T16:25:28Z</time></trkpt><trkpt lat="42.65116674928106" lon="12.017025814755625"><ele>550.0</ele><time>2026-04-17T16:25:29Z</time></trkpt><trkpt lat="42.65100629546441" lon="12.016910463201253"><ele>550.0</ele><time>2026-04-17T16:25:30Z</time></trkpt><trkpt lat="42.65086218759179" lon="12.016799890180428"><ele>549.0</ele><time>2026-04-17T16:25:31Z</time></trkpt><trkpt lat="42.65072845156621" lon="12.016683295357522"><ele>548.0</ele><time>2026-04-17T16:25:32Z</time></trkpt><trkpt lat="42.650607050658856" lon="12.016554796098"><ele>547.0</ele><time>2026-04-17T16:25:33Z</time></trkpt><trkpt lat="42.65050479690133" lon="12.016381081142045"><ele>546.6666666666667</ele><time>2026-04-17T16:25:34Z</time></trkpt><trkpt lat="42.65044754880348" lon="12.016148907438884"><ele>546.3333333333334</ele><time>2026-04-17T16:25:35Z</time></trkpt><trkpt lat="42.6503783383967" lon="12.015879004601617"><ele>546.0</ele><time>2026-04-17T16:25:36Z</time></trkpt><trkpt lat="42.65029881592071" lon="12.015602830637288"><ele>544.6666666666666</ele><time>2026-04-17T16:25:37Z</time></trkpt><trkpt lat="42.65023741509344" lon="12.015374029298828"><ele>543.3333333333333</ele><time>2026-04-17T16:25:38Z</time></trkpt><trkpt lat="42.65018748507274" lon="12.015188996246291"><ele>542.0</ele><time>2026-04-17T16:25:39Z</time></trkpt><trkpt lat="42.650159437255034" lon="12.015014506010571"><ele>542.75</ele><time>2026-04-17T16:25:40Z</time></trkpt><trkpt lat="42.65017790024651" lon="12.01485951484675"><ele>543.5</ele><time>2026-04-17T16:25:41Z</time></trkpt><trkpt lat="42.650244871912925" lon="12.014696211289579"><ele>544.25</ele><time>2026-04-17T16:25:42Z</time></trkpt><trkpt lat="42.650328641845924" lon="12.014539244429454"><ele>545.0</ele><time>2026-04-17T16:25:43Z</time></trkpt><trkpt lat="42.650394174913075" lon="12.014397776280214"><ele>545.0</ele><time>2026-04-17T16:25:44Z</time></trkpt><trkpt lat="42.65042358742362" lon="12.014258581673854"><ele>545.0</ele><time>2026-04-17T16:25:45Z</time></trkpt><trkpt lat="42.650415602841086" lon="12.014079030511795"><ele>545.0</ele><time>2026-04-17T16:25:46Z</time></trkpt><trkpt lat="42.65038013213007" lon="12.013875646948566"><ele>545.0</ele><time>2026-04-17T16:25:47Z</time></trkpt><trkpt lat="42.65032507369727" lon="12.013636584044065"><ele>541.6666666666666</ele><time>2026-04-17T16:25:48Z</time></trkpt><trkpt lat="42.650269148565975" lon="12.013371303843536"><ele>538.3333333333334</ele><time>2026-04-17T16:25:49Z</time></trkpt><trkpt lat="42.65022026474247" lon="12.013106691191654"><ele>535.0</ele><time>2026-04-17T16:25:50Z</time></trkpt><trkpt lat="42.65017841660073" lon="12.012906581053818"><ele>534.0</ele><time>2026-04-17T16:25:51Z</time></trkpt><trkpt lat="42.65012892199547" lon="12.012733805625068"><ele>533.0</ele><time>2026-04-17T16:25:52Z</time></trkpt><trkpt lat="42.65004662894321" lon="12.012615991964868"><ele>532.0</ele><time>2026-04-17T16:25:53Z</time></trkpt><trkpt lat="42.64992072846507" lon="12.012524823703282"><ele>531.0</ele><time>2026-04-17T16:25:54Z</time></trkpt><trkpt lat="42.64975094194616" lon="12.012467052122062"><ele>529.5</ele><time>2026-04-17T16:25:55Z</time></trkpt><trkpt lat="42.6495317130159" lon="12.012427605655446"><ele>528.0</ele><time>2026-04-17T16:25:56Z</time></trkpt><trkpt lat="42.64929305326248" lon="12.012370787458856"><ele>522.5</ele><time>2026-04-17T16:25:57Z</time></trkpt><trkpt lat="42.64904566356901" lon="12.012301917092751"><ele>517.0</ele><time>2026-04-17T16:25:58Z</time></trkpt><trkpt lat="42.64882520371791" lon="12.012243106894134"><ele>517.0</ele><time>2026-04-17T16:25:59Z</time></trkpt><trkpt lat="42.64864586427744" lon="12.012191013135116"><ele>517.0</ele><time>2026-04-17T16:25:59.999Z</time></trkpt><trkpt lat="42.64849738782638" lon="12.012148631874044"><ele>517.0</ele><time>2026-04-17T16:26:00.999Z</time></trkpt><trkpt lat="42.648356821022574" lon="12.012120949384954"><ele>516.25</ele><time>2026-04-17T16:26:01.999Z</time></trkpt><trkpt lat="42.64821489382279" lon="12.012127774590489"><ele>515.5</ele><time>2026-04-17T16:26:02.999Z</time></trkpt><trkpt lat="42.64809450594476" lon="12.012179127467062"><ele>514.75</ele><time>2026-04-17T16:26:03.999Z</time></trkpt><trkpt lat="42.64799437133045" lon="12.0122678473772"><ele>514.0</ele><time>2026-04-17T16:26:04.999Z</time></trkpt><trkpt lat="42.64792585987771" lon="12.012424444714853"><ele>514.0</ele><time>2026-04-17T16:26:05.999Z</time></trkpt><trkpt lat="42.64788294715945" lon="12.012602595385417"><ele>514.0</ele><time>2026-04-17T16:26:06.999Z</time></trkpt><trkpt lat="42.647827925915685" lon="12.012753870480891"><ele>514.0</ele><time>2026-04-17T16:26:07.999Z</time></trkpt><trkpt lat="42.647772056441156" lon="12.012870394712326"><ele>514.0</ele><time>2026-04-17T16:26:08.999Z</time></trkpt><trkpt lat="42.64769875283297" lon="12.012969345693545"><ele>514.0</ele><time>2026-04-17T16:26:09.999Z</time></trkpt><trkpt lat="42.6475997967415" lon="12.013042301678682"><ele>514.0</ele><time>2026-04-17T16:26:10.999Z</time></trkpt><trkpt lat="42.64750052340954" lon="12.013056642353385"><ele>514.0</ele><time>2026-04-17T16:26:11.999Z</time></trkpt><trkpt lat="42.64739617127073" lon="12.013031003111196"><ele>514.0</ele><time>2026-04-17T16:26:12.999Z</time></trkpt><trkpt lat="42.64729875471806" lon="12.012953808796656"><ele>514.0</ele><time>2026-04-17T16:26:13.999Z</time></trkpt><trkpt lat="42.647211761305215" lon="12.012856902847853"><ele>514.0</ele><time>2026-04-17T16:26:14.999Z</time></trkpt><trkpt lat="42.64714466994733" lon="12.012744298038369"><ele>514.0</ele><time>2026-04-17T16:26:15.999Z</time></trkpt><trkpt lat="42.64706647541287" lon="12.012635014381503"><ele>514.0</ele><time>2026-04-17T16:26:16.999Z</time></trkpt><trkpt lat="42.64699744974474" lon="12.012505594910236"><ele>514.0</ele><time>2026-04-17T16:26:17.999Z</time></trkpt><trkpt lat="42.64692690109442" lon="12.012376754001783"><ele>512.0</ele><time>2026-04-17T16:26:18.999Z</time></trkpt><trkpt lat="42.64686036372545" lon="12.012258893666086"><ele>510.0</ele><time>2026-04-17T16:26:19.999Z</time></trkpt><trkpt lat="42.64679288064286" lon="12.01214129414444"><ele>508.0</ele><time>2026-04-17T16:26:20.999Z</time></trkpt><trkpt lat="42.646714932347244" lon="12.012006817741453"><ele>506.0</ele><time>2026-04-17T16:26:21.999Z</time></trkpt><trkpt lat="42.64662759929183" lon="12.011850160814761"><ele>506.0</ele><time>2026-04-17T16:26:22.999Z</time></trkpt><trkpt lat="42.646539586955214" lon="12.011693615940414"><ele>506.0</ele><time>2026-04-17T16:26:23.999Z</time></trkpt><trkpt lat="42.646446417063466" lon="12.011537649076109"><ele>506.0</ele><time>2026-04-17T16:26:24.999Z</time></trkpt><trkpt lat="42.64633873357226" lon="12.011403717028191"><ele>506.0</ele><time>2026-04-17T16:26:25.999Z</time></trkpt><trkpt lat="42.64620722192041" lon="12.011310139451773"><ele>507.66666666666663</ele><time>2026-04-17T16:26:26.999Z</time></trkpt><trkpt lat="42.646046243519244" lon="12.01125693687705"><ele>509.33333333333337</ele><time>2026-04-17T16:26:27.999Z</time></trkpt><trkpt lat="42.64585902754162" lon="12.011250108259684"><ele>511.0</ele><time>2026-04-17T16:26:28.999Z</time></trkpt><trkpt lat="42.645655168058994" lon="12.011266010415548"><ele>511.0</ele><time>2026-04-17T16:26:29.999Z</time></trkpt><trkpt lat="42.6454640856456" lon="12.011241732075828"><ele>511.0</ele><time>2026-04-17T16:26:30.999Z</time></trkpt><trkpt lat="42.64530663119001" lon="12.01124132953724"><ele>511.0</ele><time>2026-04-17T16:26:31.999Z</time></trkpt><trkpt lat="42.645181498817585" lon="12.011166635795586"><ele>509.6666666666667</ele><time>2026-04-17T16:26:32.999Z</time></trkpt><trkpt lat="42.645056721423494" lon="12.011061915158827"><ele>508.33333333333337</ele><time>2026-04-17T16:26:33.999Z</time></trkpt><trkpt lat="42.644911241660914" lon="12.010916922329002"><ele>507.0</ele><time>2026-04-17T16:26:34.999Z</time></trkpt><trkpt lat="42.6447574537372" lon="12.010722496265206"><ele>507.0</ele><time>2026-04-17T16:26:35.999Z</time></trkpt><trkpt lat="42.64460849968396" lon="12.01054223988793"><ele>507.0</ele><time>2026-04-17T16:26:36.999Z</time></trkpt><trkpt lat="42.644478539322826" lon="12.01036985699502"><ele>507.0</ele><time>2026-04-17T16:26:37.999Z</time></trkpt><trkpt lat="42.64436179841829" lon="12.010196714105481"><ele>502.33333333333337</ele><time>2026-04-17T16:26:38.999Z</time></trkpt><trkpt lat="42.64427520390328" lon="12.010008932104128"><ele>497.6666666666667</ele><time>2026-04-17T16:26:39.999Z</time></trkpt><trkpt lat="42.64422203966319" lon="12.009814808413012"><ele>493.0</ele><time>2026-04-17T16:26:40.999Z</time></trkpt><trkpt lat="42.64419323496508" lon="12.009603679093923"><ele>492.33333333333337</ele><time>2026-04-17T16:26:41.999Z</time></trkpt><trkpt lat="42.644195230774095" lon="12.009367803577014"><ele>491.66666666666663</ele><time>2026-04-17T16:26:42.999Z</time></trkpt><trkpt lat="42.64422566788926" lon="12.009117382839964"><ele>491.0</ele><time>2026-04-17T16:26:43.999Z</time></trkpt><trkpt lat="42.64426615883153" lon="12.00883625021378"><ele>489.3333333333333</ele><time>2026-04-17T16:26:44.999Z</time></trkpt><trkpt lat="42.644310011875426" lon="12.008531351420158"><ele>487.66666666666663</ele><time>2026-04-17T16:26:45.999Z</time></trkpt><trkpt lat="42.644351917402105" lon="12.008237091856676"><ele>486.0</ele><time>2026-04-17T16:26:46.999Z</time></trkpt><trkpt lat="42.64439865477396" lon="12.00792789813325"><ele>485.0</ele><time>2026-04-17T16:26:47.999Z</time></trkpt><trkpt lat="42.6444464202769" lon="12.007609346081763"><ele>484.0</ele><time>2026-04-17T16:26:48.999Z</time></trkpt><trkpt lat="42.64449046270812" lon="12.007307556909707"><ele>483.0</ele><time>2026-04-17T16:26:49.999Z</time></trkpt><trkpt lat="42.644534712605946" lon="12.007028388126331"><ele>482.0</ele><time>2026-04-17T16:26:50.999Z</time></trkpt><trkpt lat="42.64456769843261" lon="12.006785386892894"><ele>481.0</ele><time>2026-04-17T16:26:51.999Z</time></trkpt><trkpt lat="42.644606822820904" lon="12.00658415095748"><ele>481.0</ele><time>2026-04-17T16:26:52.999Z</time></trkpt><trkpt lat="42.64465366665694" lon="12.006401885466042"><ele>481.0</ele><time>2026-04-17T16:26:53.999Z</time></trkpt><trkpt lat="42.644724416123786" lon="12.006229279160582"><ele>481.0</ele><time>2026-04-17T16:26:54.999Z</time></trkpt><trkpt lat="42.64481896922006" lon="12.006062119976797"><ele>481.0</ele><time>2026-04-17T16:26:55.999Z</time></trkpt><trkpt lat="42.64492694590832" lon="12.005906467368746"><ele>479.6666666666667</ele><time>2026-04-17T16:26:56.999Z</time></trkpt><trkpt lat="42.64505980596913" lon="12.005770021310715"><ele>478.33333333333337</ele><time>2026-04-17T16:26:57.999Z</time></trkpt><trkpt lat="42.64521728512991" lon="12.005624584115136"><ele>477.0</ele><time>2026-04-17T16:26:58.999Z</time></trkpt><trkpt lat="42.64541052166021" lon="12.00545233948217"><ele>477.0</ele><time>2026-04-17T16:26:59.999Z</time></trkpt><trkpt lat="42.64561006815751" lon="12.005273479125757"><ele>477.0</ele><time>2026-04-17T16:27:00.999Z</time></trkpt><trkpt lat="42.64580163999883" lon="12.005092447589819"><ele>480.33333333333337</ele><time>2026-04-17T16:27:01.999Z</time></trkpt><trkpt lat="42.645970113634164" lon="12.004939008657498"><ele>483.6666666666667</ele><time>2026-04-17T16:27:02.999Z</time></trkpt><trkpt lat="42.646127777956146" lon="12.004804226984234"><ele>487.0</ele><time>2026-04-17T16:27:03.999Z</time></trkpt><trkpt lat="42.64627703157612" lon="12.004698577868739"><ele>487.0</ele><time>2026-04-17T16:27:04.999Z</time></trkpt><trkpt lat="42.64640740322815" lon="12.004612911741411"><ele>487.0</ele><time>2026-04-17T16:27:05.999Z</time></trkpt><trkpt lat="42.646498921726916" lon="12.00451220649458"><ele>487.0</ele><time>2026-04-17T16:27:06.999Z</time></trkpt><trkpt lat="42.64654290776102" lon="12.00440721950966"><ele>487.0</ele><time>2026-04-17T16:27:07.999Z</time></trkpt><trkpt lat="42.646562332751905" lon="12.004254141980109"><ele>484.33333333333337</ele><time>2026-04-17T16:27:08.999Z</time></trkpt><trkpt lat="42.64657533634388" lon="12.004060386538956"><ele>481.66666666666663</ele><time>2026-04-17T16:27:09.999Z</time></trkpt><trkpt lat="42.64658111759989" lon="12.003851971561785"><ele>479.0</ele><time>2026-04-17T16:27:10.999Z</time></trkpt><trkpt lat="42.646591799718614" lon="12.003643254745144"><ele>479.0</ele><time>2026-04-17T16:27:11.999Z</time></trkpt><trkpt lat="42.64659266627342" lon="12.00342367521936"><ele>479.0</ele><time>2026-04-17T16:27:12.999Z</time></trkpt><trkpt lat="42.646595378771345" lon="12.003224241407585"><ele>479.0</ele><time>2026-04-17T16:27:13.999Z</time></trkpt><trkpt lat="42.646608075927546" lon="12.002999381439105"><ele>476.66666666666663</ele><time>2026-04-17T16:27:14.999Z</time></trkpt><trkpt lat="42.64663245609669" lon="12.002762438440687"><ele>474.33333333333337</ele><time>2026-04-17T16:27:15.999Z</time></trkpt><trkpt lat="42.646664362434" lon="12.00253764691276"><ele>472.0</ele><time>2026-04-17T16:27:16.999Z</time></trkpt><trkpt lat="42.64670148752066" lon="12.002331221811216"><ele>469.0</ele><time>2026-04-17T16:27:17.999Z</time></trkpt><trkpt lat="42.646751222596585" lon="12.002137506060695"><ele>466.0</ele><time>2026-04-17T16:27:18.999Z</time></trkpt><trkpt lat="42.646820449054374" lon="12.001926756651216"><ele>463.0</ele><time>2026-04-17T16:27:19.999Z</time></trkpt><trkpt lat="42.64690749926767" lon="12.001702802360938"><ele>466.6666666666667</ele><time>2026-04-17T16:27:20.999Z</time></trkpt><trkpt lat="42.64700143525203" lon="12.001464217352193"><ele>470.33333333333337</ele><time>2026-04-17T16:27:21.999Z</time></trkpt><trkpt lat="42.64709656991189" lon="12.001225990689559"><ele>474.0</ele><time>2026-04-17T16:27:22.999Z</time></trkpt><trkpt lat="42.64718167985681" lon="12.001029460674605"><ele>474.0</ele><time>2026-04-17T16:27:23.999Z</time></trkpt><trkpt lat="42.647244899720924" lon="12.000857223155634"><ele>474.0</ele><time>2026-04-17T16:27:24.999Z</time></trkpt><trkpt lat="42.647265105258704" lon="12.000702768487844"><ele>474.0</ele><time>2026-04-17T16:27:25.999Z</time></trkpt><trkpt lat="42.647241241829335" lon="12.00053736372754"><ele>474.0</ele><time>2026-04-17T16:27:26.999Z</time></trkpt><trkpt lat="42.647164790604926" lon="12.000388044860161"><ele>473.66666666666663</ele><time>2026-04-17T16:27:27.999Z</time></trkpt><trkpt lat="42.647044801629825" lon="12.0002631905155"><ele>473.3333333333333</ele><time>2026-04-17T16:27:29Z</time></trkpt><trkpt lat="42.64689106059696" lon="12.000152588454954"><ele>473.0</ele><time>2026-04-17T16:27:30Z</time></trkpt><trkpt lat="42.64673410608981" lon="12.000051699666548"><ele>470.0</ele><time>2026-04-17T16:27:31Z</time></trkpt><trkpt lat="42.646621873222024" lon="11.999957540083269"><ele>467.0</ele><time>2026-04-17T16:27:32Z</time></trkpt><trkpt lat="42.64653694276595" lon="11.999842747475666"><ele>464.0</ele><time>2026-04-17T16:27:33Z</time></trkpt><trkpt lat="42.64648771371224" lon="11.99970161060005"><ele>461.0</ele><time>2026-04-17T16:27:34Z</time></trkpt><trkpt lat="42.6464748411359" lon="11.999550867367928"><ele>461.0</ele><time>2026-04-17T16:27:35Z</time></trkpt><trkpt lat="42.6465017635228" lon="11.99939143620366"><ele>461.0</ele><time>2026-04-17T16:27:36Z</time></trkpt><trkpt lat="42.646570460413656" lon="11.99925555704504"><ele>461.0</ele><time>2026-04-17T16:27:37Z</time></trkpt><trkpt lat="42.646669719382736" lon="11.999124305929504"><ele>461.0</ele><time>2026-04-17T16:27:38Z</time></trkpt><trkpt lat="42.64678922974037" lon="11.998973134093285"><ele>460.66666666666663</ele><time>2026-04-17T16:27:39Z</time></trkpt><trkpt lat="42.64691037621888" lon="11.998817779471533"><ele>460.33333333333337</ele><time>2026-04-17T16:27:40Z</time></trkpt><trkpt lat="42.647037859670775" lon="11.998654718442923"><ele>460.0</ele><time>2026-04-17T16:27:41Z</time></trkpt><trkpt lat="42.6471582758668" lon="11.998500976743241"><ele>459.0</ele><time>2026-04-17T16:27:42Z</time></trkpt><trkpt lat="42.647270818727804" lon="11.998360325680224"><ele>458.0</ele><time>2026-04-17T16:27:43Z</time></trkpt><trkpt lat="42.64737236987674" lon="11.998238612372395"><ele>457.0</ele><time>2026-04-17T16:27:44Z</time></trkpt><trkpt lat="42.64748136569636" lon="11.998133998316737"><ele>456.0</ele><time>2026-04-17T16:27:45Z</time></trkpt><trkpt lat="42.647603338288164" lon="11.998051007256903"><ele>456.0</ele><time>2026-04-17T16:27:46Z</time></trkpt><trkpt lat="42.64773493095407" lon="11.998009902139263"><ele>456.0</ele><time>2026-04-17T16:27:47Z</time></trkpt><trkpt lat="42.64787776539752" lon="11.998010264563597"><ele>456.0</ele><time>2026-04-17T16:27:48Z</time></trkpt><trkpt lat="42.64804257339901" lon="11.998062137782139"><ele>456.0</ele><time>2026-04-17T16:27:49Z</time></trkpt><trkpt lat="42.64822714518547" lon="11.998128801076382"><ele>456.33333333333337</ele><time>2026-04-17T16:27:50Z</time></trkpt><trkpt lat="42.64841629115977" lon="11.998195040340203"><ele>456.6666666666667</ele><time>2026-04-17T16:27:51Z</time></trkpt><trkpt lat="42.648580626785254" lon="11.998262646573657"><ele>457.0</ele><time>2026-04-17T16:27:52Z</time></trkpt><trkpt lat="42.64872027990716" lon="11.998316088833073"><ele>457.0</ele><time>2026-04-17T16:27:53Z</time></trkpt><trkpt lat="42.64885676134349" lon="11.998334590543518"><ele>457.0</ele><time>2026-04-17T16:27:54Z</time></trkpt><trkpt lat="42.64898749473638" lon="11.998313092213003"><ele>457.0</ele><time>2026-04-17T16:27:55Z</time></trkpt><trkpt lat="42.64910097253387" lon="11.998241572917287"><ele>457.0</ele><time>2026-04-17T16:27:55.999Z</time></trkpt><trkpt lat="42.64919048566339" lon="11.99811434302178"><ele>457.0</ele><time>2026-04-17T16:27:56.999Z</time></trkpt><trkpt lat="42.64925579192687" lon="11.99795951215143"><ele>457.0</ele><time>2026-04-17T16:27:57.999Z</time></trkpt><trkpt lat="42.64928753218072" lon="11.997782143511797"><ele>457.0</ele><time>2026-04-17T16:27:58.999Z</time></trkpt><trkpt lat="42.64927990216907" lon="11.997595896391308"><ele>457.0</ele><time>2026-04-17T16:27:59.999Z</time></trkpt><trkpt lat="42.649247119566446" lon="11.997386822184124"><ele>453.33333333333337</ele><time>2026-04-17T16:28:00.999Z</time></trkpt><trkpt lat="42.64921482756045" lon="11.997165467050186"><ele>449.66666666666663</ele><time>2026-04-17T16:28:01.999Z</time></trkpt><trkpt lat="42.64918039326604" lon="11.996962720951656"><ele>446.0</ele><time>2026-04-17T16:28:02.999Z</time></trkpt><trkpt lat="42.64911424103494" lon="11.99676136304521"><ele>444.66666666666663</ele><time>2026-04-17T16:28:03.999Z</time></trkpt><trkpt lat="42.6490260017542" lon="11.996568580555216"><ele>443.33333333333337</ele><time>2026-04-17T16:28:04.999Z</time></trkpt><trkpt lat="42.64894141418222" lon="11.996397328785973"><ele>442.0</ele><time>2026-04-17T16:28:05.999Z</time></trkpt><trkpt lat="42.64887418282987" lon="11.996235761421879"><ele>442.0</ele><time>2026-04-17T16:28:06.999Z</time></trkpt><trkpt lat="42.64883833759107" lon="11.99608090226188"><ele>442.0</ele><time>2026-04-17T16:28:07.999Z</time></trkpt><trkpt lat="42.6488350440918" lon="11.995916498752806"><ele>442.0</ele><time>2026-04-17T16:28:08.999Z</time></trkpt><trkpt lat="42.64887037162343" lon="11.995733967481376"><ele>442.0</ele><time>2026-04-17T16:28:09.999Z</time></trkpt><trkpt lat="42.64891765385256" lon="11.995536747112473"><ele>441.33333333333337</ele><time>2026-04-17T16:28:10.999Z</time></trkpt><trkpt lat="42.64896760796257" lon="11.99532032417901"><ele>440.66666666666663</ele><time>2026-04-17T16:28:11.999Z</time></trkpt><trkpt lat="42.649017635412335" lon="11.995088656769667"><ele>440.0</ele><time>2026-04-17T16:28:12.999Z</time></trkpt><trkpt lat="42.64906928184128" lon="11.994843346942046"><ele>437.66666666666663</ele><time>2026-04-17T16:28:13.999Z</time></trkpt><trkpt lat="42.64912422399121" lon="11.994590349915756"><ele>435.33333333333337</ele><time>2026-04-17T16:28:14.999Z</time></trkpt><trkpt lat="42.649183266160016" lon="11.994336927848327"><ele>433.0</ele><time>2026-04-17T16:28:15.999Z</time></trkpt><trkpt lat="42.64924005054279" lon="11.994079848436034"><ele>431.6666666666667</ele><time>2026-04-17T16:28:16.999Z</time></trkpt><trkpt lat="42.6492919106023" lon="11.993818051771807"><ele>430.33333333333337</ele><time>2026-04-17T16:28:17.999Z</time></trkpt><trkpt lat="42.64933976918846" lon="11.99358459211054"><ele>429.0</ele><time>2026-04-17T16:28:18.999Z</time></trkpt><trkpt lat="42.649381282847855" lon="11.993375220387131"><ele>429.75</ele><time>2026-04-17T16:28:19.999Z</time></trkpt><trkpt lat="42.649424184246705" lon="11.9931880844875"><ele>430.5</ele><time>2026-04-17T16:28:20.999Z</time></trkpt><trkpt lat="42.649477611562915" lon="11.993034665485045"><ele>431.25</ele><time>2026-04-17T16:28:21.999Z</time></trkpt><trkpt lat="42.649554606860804" lon="11.992918233221724"><ele>432.0</ele><time>2026-04-17T16:28:22.999Z</time></trkpt><trkpt lat="42.6496521389895" lon="11.99284544435007"><ele>432.0</ele><time>2026-04-17T16:28:23.999Z</time></trkpt><trkpt lat="42.649760236692074" lon="11.992824530576792"><ele>432.0</ele><time>2026-04-17T16:28:24.999Z</time></trkpt><trkpt lat="42.64988853888527" lon="11.99283273209777"><ele>432.0</ele><time>2026-04-17T16:28:25.999Z</time></trkpt><trkpt lat="42.650036031619756" lon="11.992843407487461"><ele>432.0</ele><time>2026-04-17T16:28:26.999Z</time></trkpt><trkpt lat="42.65019671382028" lon="11.992847056808055"><ele>433.25</ele><time>2026-04-17T16:28:27.999Z</time></trkpt><trkpt lat="42.65035536889667" lon="11.992846539599695"><ele>434.5</ele><time>2026-04-17T16:28:28.999Z</time></trkpt><trkpt lat="42.650485440041116" lon="11.992830094746068"><ele>435.75</ele><time>2026-04-17T16:28:29.999Z</time></trkpt><trkpt lat="42.650592666430754" lon="11.992768956944687"><ele>437.0</ele><time>2026-04-17T16:28:30.999Z</time></trkpt><trkpt lat="42.65067260826102" lon="11.992654486443202"><ele>437.0</ele><time>2026-04-17T16:28:31.999Z</time></trkpt><trkpt lat="42.650721466529916" lon="11.992526916151268"><ele>437.0</ele><time>2026-04-17T16:28:32.999Z</time></trkpt><trkpt lat="42.65072187704457" lon="11.992381439695443"><ele>437.0</ele><time>2026-04-17T16:28:33.999Z</time></trkpt><trkpt lat="42.650704337990966" lon="11.992221071277465"><ele>437.0</ele><time>2026-04-17T16:28:34.999Z</time></trkpt><trkpt lat="42.65058244833977" lon="11.992100204133264"><ele>434.25</ele><time>2026-04-17T16:28:35.999Z</time></trkpt><trkpt lat="42.650463712361095" lon="11.992028530230293"><ele>431.5</ele><time>2026-04-17T16:28:36.999Z</time></trkpt><trkpt lat="42.650325884047206" lon="11.992022797905166"><ele>428.75</ele><time>2026-04-17T16:28:37.999Z</time></trkpt><trkpt lat="42.65016170127512" lon="11.992031719399053"><ele>426.0</ele><time>2026-04-17T16:28:38.999Z</time></trkpt><trkpt lat="42.65010012732568" lon="11.992055153975889"><ele>424.0</ele><time>2026-04-17T16:28:39.999Z</time></trkpt><trkpt lat="42.6499711218705" lon="11.991996183188228"><ele>422.0</ele><time>2026-04-17T16:28:41Z</time></trkpt><trkpt lat="42.649824737404266" lon="11.991930903760332"><ele>420.0</ele><time>2026-04-17T16:28:42Z</time></trkpt><trkpt lat="42.64967665512414" lon="11.991788047140027"><ele>419.66666666666663</ele><time>2026-04-17T16:28:43Z</time></trkpt><trkpt lat="42.649540743006014" lon="11.99164062524749"><ele>419.3333333333333</ele><time>2026-04-17T16:28:44Z</time></trkpt><trkpt lat="42.64942105441143" lon="11.991521986410469"><ele>419.0</ele><time>2026-04-17T16:28:45Z</time></trkpt><trkpt lat="42.64934587782154" lon="11.991376369600205"><ele>414.66666666666663</ele><time>2026-04-17T16:28:46Z</time></trkpt><trkpt lat="42.64928256858288" lon="11.991216653641182"><ele>410.33333333333337</ele><time>2026-04-17T16:28:47Z</time></trkpt><trkpt lat="42.649208794906784" lon="11.991009987976714"><ele>406.0</ele><time>2026-04-17T16:28:48Z</time></trkpt><trkpt lat="42.649116991459756" lon="11.990810610091568"><ele>406.0</ele><time>2026-04-17T16:28:49Z</time></trkpt><trkpt lat="42.6490241743398" lon="11.990667137248755"><ele>406.0</ele><time>2026-04-17T16:28:50Z</time></trkpt><trkpt lat="42.64892049463759" lon="11.990588099745782"><ele>406.0</ele><time>2026-04-17T16:28:51Z</time></trkpt><trkpt lat="42.64885130575752" lon="11.990499129011205"><ele>406.0</ele><time>2026-04-17T16:28:52Z</time></trkpt><trkpt lat="42.64886193868593" lon="11.990364825969829"><ele>406.0</ele><time>2026-04-17T16:28:53Z</time></trkpt><trkpt lat="42.64889822840192" lon="11.990235826318674"><ele>406.0</ele><time>2026-04-17T16:28:54Z</time></trkpt><trkpt lat="42.64895277141714" lon="11.990074084082508"><ele>406.0</ele><time>2026-04-17T16:28:55Z</time></trkpt><trkpt lat="42.6490187279459" lon="11.989886170791344"><ele>406.0</ele><time>2026-04-17T16:28:56Z</time></trkpt><trkpt lat="42.6490910458255" lon="11.989700940655602"><ele>406.6666666666667</ele><time>2026-04-17T16:28:57Z</time></trkpt><trkpt lat="42.649172320682474" lon="11.989536407696423"><ele>407.33333333333337</ele><time>2026-04-17T16:28:58Z</time></trkpt><trkpt lat="42.649282172826105" lon="11.989376563466916"><ele>408.0</ele><time>2026-04-17T16:28:59Z</time></trkpt><trkpt lat="42.64941197327418" lon="11.989199157492278"><ele>407.66666666666663</ele><time>2026-04-17T16:29:00Z</time></trkpt><trkpt lat="42.64953896906916" lon="11.989013205411121"><ele>407.3333333333333</ele><time>2026-04-17T16:29:01Z</time></trkpt><trkpt lat="42.649666710867265" lon="11.988842291172634"><ele>407.0</ele><time>2026-04-17T16:29:02Z</time></trkpt><trkpt lat="42.64980807310221" lon="11.988640979527258"><ele>407.0</ele><time>2026-04-17T16:29:03Z</time></trkpt><trkpt lat="42.649958916465756" lon="11.988428590930733"><ele>407.0</ele><time>2026-04-17T16:29:04Z</time></trkpt><trkpt lat="42.65008756650198" lon="11.988254329211978"><ele>407.0</ele><time>2026-04-17T16:29:05Z</time></trkpt><trkpt lat="42.65019685785249" lon="11.988106034552095"><ele>407.75</ele><time>2026-04-17T16:29:06Z</time></trkpt><trkpt lat="42.65028461510628" lon="11.987976160170584"><ele>408.5</ele><time>2026-04-17T16:29:07Z</time></trkpt><trkpt lat="42.650358840402596" lon="11.987858228320597"><ele>409.25</ele><time>2026-04-17T16:29:08Z</time></trkpt><trkpt lat="42.650403821190665" lon="11.987724771047557"><ele>410.0</ele><time>2026-04-17T16:29:09Z</time></trkpt><trkpt lat="42.65037627614672" lon="11.987553916660891"><ele>408.66666666666663</ele><time>2026-04-17T16:29:10Z</time></trkpt><trkpt lat="42.65033090671677" lon="11.987353273549202"><ele>407.33333333333337</ele><time>2026-04-17T16:29:11Z</time></trkpt><trkpt lat="42.650268308046186" lon="11.987155368058234"><ele>406.0</ele><time>2026-04-17T16:29:12Z</time></trkpt><trkpt lat="42.65019068185551" lon="11.986912899469015"><ele>402.25</ele><time>2026-04-17T16:29:13Z</time></trkpt><trkpt lat="42.65012576514365" lon="11.986687213715836"><ele>398.5</ele><time>2026-04-17T16:29:14Z</time></trkpt><trkpt lat="42.65007860595458" lon="11.98651111717609"><ele>394.75</ele><time>2026-04-17T16:29:15Z</time></trkpt><trkpt lat="42.65005109644555" lon="11.986382068483111"><ele>391.0</ele><time>2026-04-17T16:29:16Z</time></trkpt><trkpt lat="42.65005645711635" lon="11.986254933850756"><ele>390.75</ele><time>2026-04-17T16:29:17Z</time></trkpt><trkpt lat="42.650094700869595" lon="11.98612319225003"><ele>390.5</ele><time>2026-04-17T16:29:18Z</time></trkpt><trkpt lat="42.65018899942378" lon="11.986013463408295"><ele>390.25</ele><time>2026-04-17T16:29:19Z</time></trkpt><trkpt lat="42.650265657850724" lon="11.985867679731646"><ele>390.0</ele><time>2026-04-17T16:29:20Z</time></trkpt><trkpt lat="42.650374107979815" lon="11.985725782376042"><ele>390.66666666666663</ele><time>2026-04-17T16:29:21Z</time></trkpt><trkpt lat="42.650492269295434" lon="11.98556325027646"><ele>391.3333333333333</ele><time>2026-04-17T16:29:22Z</time></trkpt><trkpt lat="42.650621232847" lon="11.985376785445085"><ele>392.0</ele><time>2026-04-17T16:29:23Z</time></trkpt><trkpt lat="42.650740569070805" lon="11.98520574601232"><ele>392.0</ele><time>2026-04-17T16:29:24Z</time></trkpt><trkpt lat="42.65084058771267" lon="11.985063835474"><ele>392.0</ele><time>2026-04-17T16:29:25Z</time></trkpt><trkpt lat="42.65093217297832" lon="11.984945473347777"><ele>392.0</ele><time>2026-04-17T16:29:26Z</time></trkpt><trkpt lat="42.65099907517768" lon="11.984828949255888"><ele>392.0</ele><time>2026-04-17T16:29:27Z</time></trkpt><trkpt lat="42.65103714566366" lon="11.984698464614878"><ele>390.6</ele><time>2026-04-17T16:29:28Z</time></trkpt><trkpt lat="42.65103629448926" lon="11.984559485825574"><ele>389.20000000000005</ele><time>2026-04-17T16:29:29Z</time></trkpt><trkpt lat="42.651001968603886" lon="11.984435999528841"><ele>387.8</ele><time>2026-04-17T16:29:30Z</time></trkpt><trkpt lat="42.65093232424934" lon="11.984338098312566"><ele>386.4</ele><time>2026-04-17T16:29:31Z</time></trkpt><trkpt lat="42.65083695832393" lon="11.984290509467183"><ele>385.0</ele><time>2026-04-17T16:29:32Z</time></trkpt><trkpt lat="42.650723859705984" lon="11.984287544784848"><ele>385.0</ele><time>2026-04-17T16:29:33Z</time></trkpt><trkpt lat="42.65061360624019" lon="11.984333331096172"><ele>385.0</ele><time>2026-04-17T16:29:34Z</time></trkpt><trkpt lat="42.65051771312123" lon="11.984428597043427"><ele>385.0</ele><time>2026-04-17T16:29:35Z</time></trkpt><trkpt lat="42.65044928520398" lon="11.98453142758835"><ele>385.0</ele><time>2026-04-17T16:29:36Z</time></trkpt><trkpt lat="42.6503812942691" lon="11.984588134229837"><ele>385.0</ele><time>2026-04-17T16:29:37Z</time></trkpt><trkpt lat="42.6503235491206" lon="11.984657208750237"><ele>385.0</ele><time>2026-04-17T16:29:38Z</time></trkpt><trkpt lat="42.65027293111009" lon="11.984717757813076"><ele>385.0</ele><time>2026-04-17T16:29:39Z</time></trkpt><trkpt lat="42.65019630357257" lon="11.984809419349242"><ele>385.0</ele><time>2026-04-17T16:29:41Z</time></trkpt><trkpt lat="42.65022605886965" lon="11.984676731674812"><ele>385.0</ele><time>2026-04-17T16:29:48.001Z</time></trkpt><trkpt lat="42.65032284604647" lon="11.984546845439414"><ele>385.0</ele><time>2026-04-17T16:29:50.001Z</time></trkpt><trkpt lat="42.650376986395386" lon="11.984462140444993"><ele>385.0</ele><time>2026-04-17T16:29:51.001Z</time></trkpt><trkpt lat="42.650443425482244" lon="11.984371081029494"><ele>385.0</ele><time>2026-04-17T16:29:52.001Z</time></trkpt><trkpt lat="42.65050622655478" lon="11.984292890790995"><ele>385.0</ele><time>2026-04-17T16:29:53.001Z</time></trkpt><trkpt lat="42.65055863757751" lon="11.984238026079503"><ele>385.0</ele><time>2026-04-17T16:29:54Z</time></trkpt><trkpt lat="42.65068076378345" lon="11.984181724751352"><ele>385.0</ele><time>2026-04-17T16:29:56Z</time></trkpt><trkpt lat="42.650752963413574" lon="11.984153622531098"><ele>385.00000000000006</ele><time>2026-04-17T16:29:57Z</time></trkpt><trkpt lat="42.65083291705883" lon="11.98410724378167"><ele>385.0</ele><time>2026-04-17T16:29:58Z</time></trkpt><trkpt lat="42.65090761250622" lon="11.984105003369116"><ele>385.0</ele><time>2026-04-17T16:29:59Z</time></trkpt><trkpt lat="42.6509725058712" lon="11.98412208257398"><ele>385.0</ele><time>2026-04-17T16:30:00Z</time></trkpt><trkpt lat="42.651021651041766" lon="11.984189311002094"><ele>385.00000000000006</ele><time>2026-04-17T16:30:01Z</time></trkpt><trkpt lat="42.65108771194869" lon="11.984241839289924"><ele>385.0</ele><time>2026-04-17T16:30:02Z</time></trkpt><trkpt lat="42.65116571519765" lon="11.984317249169871"><ele>385.0</ele><time>2026-04-17T16:30:03Z</time></trkpt><trkpt lat="42.651262284061936" lon="11.984423278584792"><ele>385.0</ele><time>2026-04-17T16:30:04Z</time></trkpt><trkpt lat="42.65136825558621" lon="11.984542202576913"><ele>385.0</ele><time>2026-04-17T16:30:05Z</time></trkpt><trkpt lat="42.65146966148438" lon="11.984656002899506"><ele>385.0</ele><time>2026-04-17T16:30:06Z</time></trkpt><trkpt lat="42.651561290329134" lon="11.984731988062002"><ele>385.0</ele><time>2026-04-17T16:30:07Z</time></trkpt><trkpt lat="42.65160983570292" lon="11.98479089869775"><ele>385.0</ele><time>2026-04-17T16:30:08Z</time></trkpt><trkpt lat="42.65169921114967" lon="11.984789422275416"><ele>385.0</ele><time>2026-04-17T16:30:10Z</time></trkpt><trkpt lat="42.651782888442526" lon="11.984649277271256"><ele>385.0</ele><time>2026-04-17T16:30:12Z</time></trkpt><trkpt lat="42.65176210932401" lon="11.984532005097135"><ele>385.0</ele><time>2026-04-17T16:30:13Z</time></trkpt><trkpt lat="42.65178203594601" lon="11.984424688591435"><ele>385.00000000000006</ele><time>2026-04-17T16:30:14Z</time></trkpt><trkpt lat="42.65179154050487" lon="11.984286574819915"><ele>385.0</ele><time>2026-04-17T16:30:16Z</time></trkpt><trkpt lat="42.651813121580446" lon="11.984202077424323"><ele>385.0</ele><time>2026-04-17T16:30:18Z</time></trkpt><trkpt lat="42.65191280434348" lon="11.98419280320973"><ele>385.0</ele><time>2026-04-17T16:30:19Z</time></trkpt><trkpt lat="42.651981477391395" lon="11.984218011168036"><ele>385.00000000000006</ele><time>2026-04-17T16:30:20Z</time></trkpt><trkpt lat="42.65203524737454" lon="11.98427928018733"><ele>385.0</ele><time>2026-04-17T16:30:21Z</time></trkpt><trkpt lat="42.65208039703169" lon="11.984398308689784"><ele>388.4</ele><time>2026-04-17T16:30:22Z</time></trkpt><trkpt lat="42.652123161437636" lon="11.984531622599857"><ele>391.8</ele><time>2026-04-17T16:30:23Z</time></trkpt><trkpt lat="42.652155923684745" lon="11.984681654553388"><ele>395.20000000000005</ele><time>2026-04-17T16:30:24Z</time></trkpt><trkpt lat="42.65218732588847" lon="11.984789553598612"><ele>398.6</ele><time>2026-04-17T16:30:25Z</time></trkpt><trkpt lat="42.65223469050868" lon="11.984867377747142"><ele>402.0</ele><time>2026-04-17T16:30:26Z</time></trkpt><trkpt lat="42.652286353505694" lon="11.984941594815014"><ele>400.8333333333333</ele><time>2026-04-17T16:30:27Z</time></trkpt><trkpt lat="42.652335812865935" lon="11.985016752450049"><ele>399.66666666666663</ele><time>2026-04-17T16:30:28Z</time></trkpt><trkpt lat="42.652383802026655" lon="11.985136959079936"><ele>398.5</ele><time>2026-04-17T16:30:30Z</time></trkpt><trkpt lat="42.652429479592506" lon="11.985220117661713"><ele>397.3333333333333</ele><time>2026-04-17T16:30:32Z</time></trkpt><trkpt lat="42.652467437376735" lon="11.98528921971527"><ele>396.16666666666663</ele><time>2026-04-17T16:30:34Z</time></trkpt><trkpt lat="42.652506494816905" lon="11.985372481960669"><ele>395.0</ele><time>2026-04-17T16:30:36Z</time></trkpt><trkpt lat="42.65256732706588" lon="11.985455855290661"><ele>395.0</ele><time>2026-04-17T16:30:38Z</time></trkpt><trkpt lat="42.65263525601721" lon="11.985575421929932"><ele>395.0</ele><time>2026-04-17T16:30:40Z</time></trkpt><trkpt lat="42.652713423233294" lon="11.98560900269764"><ele>395.0</ele><time>2026-04-17T16:30:41Z</time></trkpt><trkpt lat="42.652791536704164" lon="11.985598391634646"><ele>395.0</ele><time>2026-04-17T16:30:42Z</time></trkpt><trkpt lat="42.65286619908944" lon="11.985586540550074"><ele>395.0</ele><time>2026-04-17T16:30:43Z</time></trkpt><trkpt lat="42.652981525239774" lon="11.985517312064898"><ele>395.75</ele><time>2026-04-17T16:30:44Z</time></trkpt><trkpt lat="42.65309027852943" lon="11.985448479550975"><ele>396.5</ele><time>2026-04-17T16:30:45Z</time></trkpt><trkpt lat="42.65320589099125" lon="11.98534412847402"><ele>397.25</ele><time>2026-04-17T16:30:46Z</time></trkpt><trkpt lat="42.65331834378002" lon="11.985262823969325"><ele>398.0</ele><time>2026-04-17T16:30:47Z</time></trkpt><trkpt lat="42.65342319740865" lon="11.985195022052157"><ele>398.0</ele><time>2026-04-17T16:30:48Z</time></trkpt><trkpt lat="42.65354714142459" lon="11.985133414406809"><ele>398.0</ele><time>2026-04-17T16:30:49Z</time></trkpt><trkpt lat="42.65368360871092" lon="11.985100352916707"><ele>398.0</ele><time>2026-04-17T16:30:50Z</time></trkpt><trkpt lat="42.65381924732095" lon="11.985055023712153"><ele>398.0</ele><time>2026-04-17T16:30:51Z</time></trkpt><trkpt lat="42.65396450001297" lon="11.984975077372093"><ele>402.0</ele><time>2026-04-17T16:30:52Z</time></trkpt><trkpt lat="42.65411594581793" lon="11.984877815253183"><ele>406.0</ele><time>2026-04-17T16:30:53Z</time></trkpt><trkpt lat="42.65424024631445" lon="11.98480273756452"><ele>410.0</ele><time>2026-04-17T16:30:54Z</time></trkpt><trkpt lat="42.65433298246707" lon="11.984742960950431"><ele>414.0</ele><time>2026-04-17T16:30:55Z</time></trkpt><trkpt lat="42.654413758038444" lon="11.984687093279325"><ele>416.6</ele><time>2026-04-17T16:30:56Z</time></trkpt><trkpt lat="42.65448397542471" lon="11.984612045018642"><ele>419.2</ele><time>2026-04-17T16:30:57Z</time></trkpt><trkpt lat="42.654546361576266" lon="11.984524713250043"><ele>421.80000000000007</ele><time>2026-04-17T16:30:58Z</time></trkpt><trkpt lat="42.65461520614815" lon="11.984418341600223"><ele>424.40000000000003</ele><time>2026-04-17T16:30:59Z</time></trkpt><trkpt lat="42.65468820240439" lon="11.98432977591201"><ele>427.0</ele><time>2026-04-17T16:31:00Z</time></trkpt><trkpt lat="42.654755708351125" lon="11.984276990517191"><ele>427.0</ele><time>2026-04-17T16:31:01Z</time></trkpt><trkpt lat="42.654843699742194" lon="11.984299963436516"><ele>427.0</ele><time>2026-04-17T16:31:02Z</time></trkpt><trkpt lat="42.654952650297034" lon="11.98430700605517"><ele>427.0</ele><time>2026-04-17T16:31:03Z</time></trkpt><trkpt lat="42.65509445099678" lon="11.984330588368776"><ele>427.0</ele><time>2026-04-17T16:31:04Z</time></trkpt><trkpt lat="42.655258687919314" lon="11.98434181082771"><ele>429.0</ele><time>2026-04-17T16:31:05Z</time></trkpt><trkpt lat="42.65542642686875" lon="11.984354227970444"><ele>431.00000000000006</ele><time>2026-04-17T16:31:06Z</time></trkpt><trkpt lat="42.6555369160425" lon="11.984371761852877"><ele>433.00000000000006</ele><time>2026-04-17T16:31:07Z</time></trkpt><trkpt lat="42.65561260488755" lon="11.984347633718464"><ele>435.0</ele><time>2026-04-17T16:31:08Z</time></trkpt><trkpt lat="42.655694825276164" lon="11.984297251974972"><ele>437.0</ele><time>2026-04-17T16:31:09Z</time></trkpt><trkpt lat="42.65580051239117" lon="11.984239961897805"><ele>438.0</ele><time>2026-04-17T16:31:10Z</time></trkpt><trkpt lat="42.6558993564436" lon="11.9841364162602"><ele>439.0</ele><time>2026-04-17T16:31:11Z</time></trkpt><trkpt lat="42.65598850807357" lon="11.98402380238302"><ele>440.0</ele><time>2026-04-17T16:31:12Z</time></trkpt><trkpt lat="42.65608285027415" lon="11.983942270583322"><ele>441.0</ele><time>2026-04-17T16:31:13Z</time></trkpt><trkpt lat="42.65616555926617" lon="11.983887960648667"><ele>442.0</ele><time>2026-04-17T16:31:14Z</time></trkpt><trkpt lat="42.65625352207396" lon="11.983843528050853"><ele>443.0</ele><time>2026-04-17T16:31:15Z</time></trkpt><trkpt lat="42.65635804493713" lon="11.983813490840708"><ele>444.0</ele><time>2026-04-17T16:31:16Z</time></trkpt><trkpt lat="42.65646692941897" lon="11.983730985900136"><ele>445.0</ele><time>2026-04-17T16:31:17Z</time></trkpt><trkpt lat="42.6565919329033" lon="11.983643074537882"><ele>445.0</ele><time>2026-04-17T16:31:18Z</time></trkpt><trkpt lat="42.65672611438266" lon="11.983541723178288"><ele>445.0</ele><time>2026-04-17T16:31:19Z</time></trkpt><trkpt lat="42.6568590790668" lon="11.98345312300994"><ele>445.0</ele><time>2026-04-17T16:31:20Z</time></trkpt><trkpt lat="42.65696701489394" lon="11.983371595866872"><ele>445.0</ele><time>2026-04-17T16:31:21Z</time></trkpt><trkpt lat="42.65707658087561" lon="11.983294188205074"><ele>446.5</ele><time>2026-04-17T16:31:22Z</time></trkpt><trkpt lat="42.657182401428415" lon="11.983203704930796"><ele>448.0</ele><time>2026-04-17T16:31:23Z</time></trkpt><trkpt lat="42.657283789444264" lon="11.983106267283507"><ele>449.5</ele><time>2026-04-17T16:31:24Z</time></trkpt><trkpt lat="42.65737084714352" lon="11.983011697957204"><ele>451.0</ele><time>2026-04-17T16:31:25Z</time></trkpt><trkpt lat="42.657445755836285" lon="11.98292243916897"><ele>451.0</ele><time>2026-04-17T16:31:26Z</time></trkpt><trkpt lat="42.65752151902384" lon="11.982832274293555"><ele>451.0</ele><time>2026-04-17T16:31:27Z</time></trkpt><trkpt lat="42.657601154651836" lon="11.98275815170653"><ele>451.0</ele><time>2026-04-17T16:31:28Z</time></trkpt><trkpt lat="42.657688592243524" lon="11.982699453713082"><ele>451.0</ele><time>2026-04-17T16:31:29Z</time></trkpt><trkpt lat="42.65777577185921" lon="11.982659295086336"><ele>451.0</ele><time>2026-04-17T16:31:30Z</time></trkpt><trkpt lat="42.65786549126943" lon="11.98263375910629"><ele>450.00000000000006</ele><time>2026-04-17T16:31:31Z</time></trkpt><trkpt lat="42.65795362785265" lon="11.982648322663344"><ele>449.0</ele><time>2026-04-17T16:31:32Z</time></trkpt><trkpt lat="42.658028791865014" lon="11.98264918840769"><ele>448.0</ele><time>2026-04-17T16:31:33Z</time></trkpt><trkpt lat="42.65810349923701" lon="11.98264284231032"><ele>447.0</ele><time>2026-04-17T16:31:34Z</time></trkpt><trkpt lat="42.65817951226355" lon="11.98265018947485"><ele>446.00000000000006</ele><time>2026-04-17T16:31:35Z</time></trkpt><trkpt lat="42.65826499513449" lon="11.982644275176694"><ele>445.0</ele><time>2026-04-17T16:31:36Z</time></trkpt><trkpt lat="42.65835762116214" lon="11.982622506865198"><ele>445.0</ele><time>2026-04-17T16:31:37Z</time></trkpt><trkpt lat="42.6584447700228" lon="11.98259167976803"><ele>445.0</ele><time>2026-04-17T16:31:38Z</time></trkpt><trkpt lat="42.658542115694736" lon="11.98255156704687"><ele>445.0</ele><time>2026-04-17T16:31:39Z</time></trkpt><trkpt lat="42.658648694566736" lon="11.98253422745317"><ele>445.0</ele><time>2026-04-17T16:31:40.001Z</time></trkpt><trkpt lat="42.65874188475124" lon="11.98250163574674"><ele>445.0</ele><time>2026-04-17T16:31:41.001Z</time></trkpt><trkpt lat="42.65881827368024" lon="11.982454757938667"><ele>444.6</ele><time>2026-04-17T16:31:42.001Z</time></trkpt><trkpt lat="42.65889604737278" lon="11.982448384120126"><ele>444.2</ele><time>2026-04-17T16:31:43.001Z</time></trkpt><trkpt lat="42.658994789027474" lon="11.982493116010707"><ele>443.79999999999995</ele><time>2026-04-17T16:31:44Z</time></trkpt><trkpt lat="42.65910641578212" lon="11.982524240338634"><ele>443.4</ele><time>2026-04-17T16:31:45Z</time></trkpt><trkpt lat="42.659236594715026" lon="11.982545355497379"><ele>443.0</ele><time>2026-04-17T16:31:46Z</time></trkpt><trkpt lat="42.65934560153939" lon="11.982577571837487"><ele>442.99999999999994</ele><time>2026-04-17T16:31:47Z</time></trkpt><trkpt lat="42.6594403810619" lon="11.982608237688423"><ele>443.0</ele><time>2026-04-17T16:31:48Z</time></trkpt><trkpt lat="42.659517479906754" lon="11.982629789999079"><ele>443.0</ele><time>2026-04-17T16:31:49Z</time></trkpt><trkpt lat="42.65958108167665" lon="11.98265400119042"><ele>443.0</ele><time>2026-04-17T16:31:50Z</time></trkpt><trkpt lat="42.65968199232306" lon="11.98267502720934"><ele>442.99999999999994</ele><time>2026-04-17T16:31:52Z</time></trkpt><trkpt lat="42.65974584696894" lon="11.982700354514222"><ele>443.0</ele><time>2026-04-17T16:31:54Z</time></trkpt><trkpt lat="42.6598349705181" lon="11.982533929483125"><ele>446.59999999999997</ele><time>2026-04-17T16:31:56Z</time></trkpt><trkpt lat="42.659858201279306" lon="11.982437527644825"><ele>450.19999999999993</ele><time>2026-04-17T16:31:57Z</time></trkpt><trkpt lat="42.65989014690225" lon="11.982305206376974"><ele>453.8</ele><time>2026-04-17T16:31:58Z</time></trkpt><trkpt lat="42.65992557791899" lon="11.98215878876106"><ele>457.4</ele><time>2026-04-17T16:31:59Z</time></trkpt><trkpt lat="42.659951659796526" lon="11.98200151414792"><ele>461.0</ele><time>2026-04-17T16:32:00Z</time></trkpt><trkpt lat="42.66000227785251" lon="11.981857467476567"><ele>461.0</ele><time>2026-04-17T16:32:01Z</time></trkpt><trkpt lat="42.660024338463245" lon="11.981707525832714"><ele>461.0</ele><time>2026-04-17T16:32:02Z</time></trkpt><trkpt lat="42.66005718943364" lon="11.981582892250609"><ele>461.0</ele><time>2026-04-17T16:32:03Z</time></trkpt><trkpt lat="42.660086484870426" lon="11.981481914314696"><ele>461.0</ele><time>2026-04-17T16:32:04Z</time></trkpt><trkpt lat="42.66011452188731" lon="11.981378234657777"><ele>461.0</ele><time>2026-04-17T16:32:06Z</time></trkpt><trkpt lat="42.660022067419" lon="11.981241171890943"><ele>458.0</ele><time>2026-04-17T16:32:10Z</time></trkpt><trkpt lat="42.65994607701556" lon="11.981178812164355"><ele>458.0</ele><time>2026-04-17T16:32:12Z</time></trkpt><trkpt lat="42.659915977907396" lon="11.981096031867585"><ele>458.0</ele><time>2026-04-17T16:32:14Z</time></trkpt><trkpt lat="42.65983998267301" lon="11.981105616906913"><ele>458.0</ele><time>2026-04-17T16:32:19Z</time></trkpt><trkpt lat="42.65986869916498" lon="11.981213983473681"><ele>458.0</ele><time>2026-04-17T16:32:22Z</time></trkpt></trkseg></trk></gpx>